Observation data for Throckmorton on 06/15/2019      Previous  Date  Next       Current Mesonet Observations  Soil Data  Daily Summary Page  Observations in Plain Language
KTH1 150500Z 18007KT 26/18 A2981 RMK A01 T02600181  RH  062%=      5-min Rain = 0
KTH1 150501Z 19007KT 26/18 A2981 RMK A01 T02600181  RH  062%=      5-min Rain = 0
KTH1 150502Z 18009KT 26/18 A2981 RMK A01 T02590181  RH  062%=      5-min Rain = 0
KTH1 150503Z 18008KT 26/18 A2981 RMK A01 T02590181  RH  062%=      5-min Rain = 0
KTH1 150504Z 18008G13KT 26/18 A2981 RMK A01 T02590181  RH  062%=      5-min Rain = 0
KTH1 150505Z 18006KT 26/18 A2981 RMK A01 T02590181  RH  062%=      5-min Rain = 0
KTH1 150506Z 18006KT 26/18 A2981 RMK A01 T02580181  RH  062%=      5-min Rain = 0
KTH1 150507Z 17007KT 26/18 A2981 RMK A01 T02580181  RH  062%=      5-min Rain = 0
KTH1 150508Z 17006KT 26/18 A2981 RMK A01 T02570181  RH  063%=      5-min Rain = 0
KTH1 150509Z 18006KT 26/18 A2981 RMK A01 T02570181  RH  063%=      5-min Rain = 0
KTH1 150510Z 17007KT 26/18 A2981 RMK A01 T02560180  RH  063%=      5-min Rain = 0
KTH1 150511Z 17005KT 26/18 A2981 RMK A01 T02560181  RH  063%=      5-min Rain = 0
KTH1 150512Z 17008KT 26/18 A2981 RMK A01 T02560181  RH  063%=      5-min Rain = 0
KTH1 150513Z 17008KT 26/18 A298 RMK A01 T02560180  RH  063%=      5-min Rain = 0
KTH1 150514Z 16007KT 26/18 A298 RMK A01 T02560180  RH  063%=      5-min Rain = 0
KTH1 150515Z 17010KT 26/18 A298 RMK A01 T02560181  RH  063%=      5-min Rain = 0
KTH1 150516Z 17007KT 26/18 A298 RMK A01 T02560180  RH  063%=      5-min Rain = 0
KTH1 150517Z 17007KT 26/18 A298 RMK A01 T02560181  RH  063%=      5-min Rain = 0
KTH1 150518Z 17007KT 26/18 A298 RMK A01 T02560181  RH  063%=      5-min Rain = 0
KTH1 150519Z 17008KT 26/18 A298 RMK A01 T02560181  RH  063%=      5-min Rain = 0
KTH1 150520Z 17008KT 26/18 A298 RMK A01 T02560180  RH  063%=      5-min Rain = 0
KTH1 150521Z 17006KT 26/18 A298 RMK A01 T02560181  RH  063%=      5-min Rain = 0
KTH1 150522Z 16006KT 26/18 A298 RMK A01 T02550181  RH  063%=      5-min Rain = 0
KTH1 150523Z 16005KT 26/18 A298 RMK A01 T02550181  RH  064%=      5-min Rain = 0
KTH1 150524Z 16008KT 25/18 A298 RMK A01 T02540181  RH  064%=      5-min Rain = 0
KTH1 150525Z 16007G12KT 25/18 A298 RMK A01 T02540180  RH  064%=      5-min Rain = 0
KTH1 150526Z 16006KT 25/18 A298 RMK A01 T02540180  RH  064%=      5-min Rain = 0
KTH1 150527Z 17010KT 25/18 A2979 RMK A01 T02540180  RH  064%=      5-min Rain = 0
KTH1 150528Z 17009KT 25/18 A298 RMK A01 T02540180  RH  064%=      5-min Rain = 0
KTH1 150529Z 16008KT 25/18 A298 RMK A01 T02540180  RH  063%=      5-min Rain = 0
KTH1 150530Z 17008KT 25/18 A298 RMK A01 T02540180  RH  063%=      5-min Rain = 0
KTH1 150531Z 17008KT 25/18 A298 RMK A01 T02540180  RH  063%=      5-min Rain = 0
KTH1 150532Z 17007KT 25/18 A298 RMK A01 T02540180  RH  063%=      5-min Rain = 0
KTH1 150533Z 17008KT 25/18 A298 RMK A01 T02540180  RH  063%=      5-min Rain = 0
KTH1 150534Z 16008KT 25/18 A298 RMK A01 T02540180  RH  063%=      5-min Rain = 0
KTH1 150535Z 17006KT 25/18 A298 RMK A01 T02540180  RH  063%=      5-min Rain = 0
KTH1 150536Z 17007G12KT 25/18 A298 RMK A01 T02540180  RH  063%=      5-min Rain = 0
KTH1 150537Z 17007KT 25/18 A298 RMK A01 T02540180  RH  063%=      5-min Rain = 0
KTH1 150538Z 16007KT 25/18 A298 RMK A01 T02540180  RH  064%=      5-min Rain = 0
KTH1 150539Z 17008KT 25/18 A298 RMK A01 T02540180  RH  063%=      5-min Rain = 0
KTH1 150540Z 17008KT 26/18 A2979 RMK A01 T02550180  RH  063%=      5-min Rain = 0
KTH1 150541Z 17007KT 25/18 A298 RMK A01 T02540180  RH  063%=      5-min Rain = 0
KTH1 150542Z 17008KT 25/18 A298 RMK A01 T02540180  RH  063%=      5-min Rain = 0
KTH1 150543Z 18009KT 25/18 A298 RMK A01 T02540180  RH  063%=      5-min Rain = 0
KTH1 150544Z 15007KT 26/18 A298 RMK A01 T02550180  RH  063%=      5-min Rain = 0
KTH1 150545Z 16006KT 26/18 A298 RMK A01 T02550180  RH  063%=      5-min Rain = 0
KTH1 150546Z 18007KT 25/18 A298 RMK A01 T02540180  RH  063%=      5-min Rain = 0
KTH1 150547Z 16007KT 26/18 A298 RMK A01 T02550180  RH  063%=      5-min Rain = 0
KTH1 150548Z 17007KT 26/18 A298 RMK A01 T02550180  RH  063%=      5-min Rain = 0
KTH1 150549Z 17006KT 25/18 A298 RMK A01 T02540180  RH  063%=      5-min Rain = 0
KTH1 150550Z 17008G13KT 25/18 A298 RMK A01 T02540180  RH  063%=      5-min Rain = 0
KTH1 150551Z 17006KT 26/18 A298 RMK A01 T02550180  RH  063%=      5-min Rain = 0
KTH1 150552Z 17006KT 26/18 A298 RMK A01 T02550180  RH  063%=      5-min Rain = 0
KTH1 150553Z 17006KT 26/18 A298 RMK A01 T02550180  RH  063%=      5-min Rain = 0
KTH1 150554Z 17006KT 26/18 A298 RMK A01 T02550180  RH  063%=      5-min Rain = 0
KTH1 150555Z 18006KT 26/18 A298 RMK A01 T02550180  RH  063%=      5-min Rain = 0
KTH1 150556Z 19004KT 25/18 A298 RMK A01 T02540180  RH  064%=      5-min Rain = 0
KTH1 150557Z 18006KT 25/18 A298 RMK A01 T02540180  RH  064%=      5-min Rain = 0
KTH1 150558Z 16006KT 25/18 A298 RMK A01 T02540180  RH  064%=      5-min Rain = 0
KTH1 150559Z 18007KT 25/18 A298 RMK A01 T02540180  RH  064%=      5-min Rain = 0
KTH1 150600Z 18006KT 25/18 A298 RMK A01 T02540179  RH  063%=      5-min Rain = 0
KTH1 150601Z 18005KT 25/18 A298 RMK A01 T02540180  RH  063%=      5-min Rain = 0
KTH1 150602Z 18008KT 25/18 A298 RMK A01 T02540180  RH  064%=      5-min Rain = 0
KTH1 150603Z 17005KT 25/18 A298 RMK A01 T02540180  RH  064%=      5-min Rain = 0
KTH1 150604Z 18005KT 25/18 A298 RMK A01 T02540180  RH  064%=      5-min Rain = 0
KTH1 150605Z 18006G11KT 25/18 A298 RMK A01 T02540180  RH  064%=      5-min Rain = 0
KTH1 150606Z 17005KT 25/18 A298 RMK A01 T02530180  RH  064%=      5-min Rain = 0
KTH1 150607Z 17006KT 25/18 A298 RMK A01 T02530180  RH  064%=      5-min Rain = 0
KTH1 150608Z 16006KT 25/18 A298 RMK A01 T02530181  RH  064%=      5-min Rain = 0
KTH1 150609Z 17004KT 25/18 A298 RMK A01 T02520180  RH  065%=      5-min Rain = 0
KTH1 150610Z 16005KT 25/18 A298 RMK A01 T02510180  RH  065%=      5-min Rain = 0
KTH1 150611Z 17006KT 25/18 A298 RMK A01 T02510180  RH  065%=      5-min Rain = 0
KTH1 150612Z 17005KT 25/18 A298 RMK A01 T02510180  RH  065%=      5-min Rain = 0
KTH1 150613Z 17005KT 25/18 A298 RMK A01 T02510180  RH  065%=      5-min Rain = 0
KTH1 150614Z 17004KT 25/18 A298 RMK A01 T02510180  RH  065%=      5-min Rain = 0
KTH1 150615Z 18006KT 25/18 A298 RMK A01 T02510181  RH  065%=      5-min Rain = 0
KTH1 150616Z 17004KT 25/18 A298 RMK A01 T02500181  RH  065%=      5-min Rain = 0
KTH1 150617Z 16003KT 25/18 A298 RMK A01 T02500181  RH  065%=      5-min Rain = 0
KTH1 150618Z 16005KT 25/18 A298 RMK A01 T02500181  RH  066%=      5-min Rain = 0
KTH1 150619Z 16004KT 25/18 A298 RMK A01 T02490181  RH  066%=      5-min Rain = 0
KTH1 150620Z 17005KT 25/18 A298 RMK A01 T02490181  RH  066%=      5-min Rain = 0
KTH1 150621Z 15004KT 25/18 A298 RMK A01 T02480180  RH  066%=      5-min Rain = 0
KTH1 150622Z 16004KT 25/18 A298 RMK A01 T02490181  RH  066%=      5-min Rain = 0
KTH1 150623Z 16003KT 25/18 A298 RMK A01 T02480181  RH  066%=      5-min Rain = 0
KTH1 150624Z 17005KT 25/18 A298 RMK A01 T02480181  RH  066%=      5-min Rain = 0
KTH1 150625Z 16006KT 25/18 A298 RMK A01 T02470180  RH  066%=      5-min Rain = 0
KTH1 150626Z 17004KT 25/18 A298 RMK A01 T02480181  RH  066%=      5-min Rain = 0
KTH1 150627Z 16004KT 25/18 A298 RMK A01 T02480181  RH  066%=      5-min Rain = 0
KTH1 150628Z 16004KT 25/18 A298 RMK A01 T02480181  RH  066%=      5-min Rain = 0
KTH1 150629Z 15003KT 25/18 A2981 RMK A01 T02480181  RH  066%=      5-min Rain = 0
KTH1 150630Z 17005KT 25/18 A2981 RMK A01 T02470181  RH  067%=      5-min Rain = 0
KTH1 150631Z 17003KT 25/18 A2981 RMK A01 T02470181  RH  067%=      5-min Rain = 0
KTH1 150632Z 18004KT 25/18 A2981 RMK A01 T02460181  RH  067%=      5-min Rain = 0
KTH1 150633Z 17004KT 25/18 A2981 RMK A01 T02460181  RH  067%=      5-min Rain = 0
KTH1 150634Z 17003KT 25/18 A2981 RMK A01 T02460180  RH  067%=      5-min Rain = 0
KTH1 150635Z 16003KT 25/18 A2981 RMK A01 T02460181  RH  067%=      5-min Rain = 0
KTH1 150636Z 16002KT 25/18 A2981 RMK A01 T02460181  RH  067%=      5-min Rain = 0
KTH1 150637Z 17002KT 25/18 A2981 RMK A01 T02460181  RH  067%=      5-min Rain = 0
KTH1 150638Z 18002KT 25/18 A2981 RMK A01 T02460181  RH  067%=      5-min Rain = 0
KTH1 150639Z 16002KT 25/18 A2981 RMK A01 T02460181  RH  067%=      5-min Rain = 0
KTH1 150640Z 19002KT 25/18 A2981 RMK A01 T02460181  RH  067%=      5-min Rain = 0
KTH1 150641Z 23001KT 25/18 A2982 RMK A01 T02450180  RH  067%=      5-min Rain = 0
KTH1 150642Z 26001KT 25/18 A2982 RMK A01 T02450180  RH  067%=      5-min Rain = 0
KTH1 150643Z 30001KT 25/18 A2982 RMK A01 T02450181  RH  067%=      5-min Rain = 0
KTH1 150644Z 30001KT 25/18 A2982 RMK A01 T02450181  RH  068%=      5-min Rain = 0
KTH1 150645Z 32002KT 25/18 A2982 RMK A01 T02450181  RH  068%=      5-min Rain = 0
KTH1 150646Z 34002KT 25/18 A2982 RMK A01 T02450182  RH  068%=      5-min Rain = 0
KTH1 150647Z 34003KT 24/18 A2982 RMK A01 T02440182  RH  068%=      5-min Rain = 0
KTH1 150648Z 35003KT 24/18 A2982 RMK A01 T02420182  RH  069%=      5-min Rain = 0
KTH1 150649Z 35005KT 24/18 A2983 RMK A01 T02410183  RH  070%=      5-min Rain = 0
KTH1 150650Z 00005KT 24/18 A2983 RMK A01 T02390183  RH  071%=      5-min Rain = 0
KTH1 150651Z 00005KT 24/18 A2983 RMK A01 T02370183  RH  072%=      5-min Rain = 0
KTH1 150652Z 00004KT 24/18 A2983 RMK A01 T02360183  RH  072%=      5-min Rain = 0
KTH1 150653Z 00004KT 23/18 A2983 RMK A01 T02340183  RH  073%=      5-min Rain = 0
KTH1 150654Z 36004KT 23/18 A2983 RMK A01 T02340182  RH  073%=      5-min Rain = 0
KTH1 150655Z 00003KT 23/18 A2983 RMK A01 T02340183  RH  073%=      5-min Rain = 0
KTH1 150656Z 36003KT 23/18 A2983 RMK A01 T02340183  RH  073%=      5-min Rain = 0
KTH1 150657Z 35003KT 23/18 A2983 RMK A01 T02340183  RH  073%=      5-min Rain = 0
KTH1 150658Z 34003KT 23/18 A2983 RMK A01 T02340183  RH  073%=      5-min Rain = 0
KTH1 150659Z 32002KT 23/18 A2983 RMK A01 T02340184  RH  073%=      5-min Rain = 0
KTH1 150700Z 30002KT 23/18 A2983 RMK A01 T02330183  RH  074%=      5-min Rain = 0
KTH1 150701Z 32002KT 23/18 A2983 RMK A01 T02330183  RH  073%=      5-min Rain = 0
KTH1 150702Z 27003KT 23/18 A2983 RMK A01 T02330182  RH  073%=      5-min Rain = 0
KTH1 150703Z 25002KT 24/18 A2983 RMK A01 T02360184  RH  073%=      5-min Rain = 0
KTH1 150704Z 22002KT 24/18 A2983 RMK A01 T02370184  RH  072%=      5-min Rain = 0
KTH1 150705Z 23003KT 24/19 A2983 RMK A01 T02380186  RH  073%=      5-min Rain = 0
KTH1 150706Z 22004KT 24/19 A2983 RMK A01 T02380187  RH  073%=      5-min Rain = 0
KTH1 150707Z 21003KT 24/19 A2983 RMK A01 T02380186  RH  072%=      5-min Rain = 0
KTH1 150708Z 21005KT 24/19 A2983 RMK A01 T02380185  RH  072%=      5-min Rain = 0
KTH1 150709Z 21004KT 24/18 A2983 RMK A01 T02380184  RH  072%=      5-min Rain = 0
KTH1 150710Z 20005KT 24/19 A2983 RMK A01 T02380185  RH  072%=      5-min Rain = 0
KTH1 150711Z 20006KT 24/18 A2983 RMK A01 T02380184  RH  072%=      5-min Rain = 0
KTH1 150712Z 20006KT 24/18 A2982 RMK A01 T02380183  RH  071%=      5-min Rain = 0
KTH1 150713Z 21006KT 24/18 A2982 RMK A01 T02390183  RH  071%=      5-min Rain = 0
KTH1 150714Z 21005KT 24/18 A2982 RMK A01 T02410183  RH  070%=      5-min Rain = 0
KTH1 150715Z 20007KT 24/18 A2982 RMK A01 T02410183  RH  070%=      5-min Rain = 0
KTH1 150716Z 20005KT 24/18 A2982 RMK A01 T02420183  RH  070%=      5-min Rain = 0
KTH1 150717Z 20005KT 24/18 A2982 RMK A01 T02420183  RH  069%=      5-min Rain = 0
KTH1 150718Z 20006KT 24/18 A2982 RMK A01 T02420183  RH  070%=      5-min Rain = 0
KTH1 150719Z 20006KT 24/18 A2982 RMK A01 T02420184  RH  070%=      5-min Rain = 0
KTH1 150720Z 19005KT 24/18 A2982 RMK A01 T02410183  RH  070%=      5-min Rain = 0
KTH1 150721Z 19005KT 24/18 A2982 RMK A01 T02410183  RH  070%=      5-min Rain = 0
KTH1 150722Z 20004KT 24/18 A2982 RMK A01 T02410183  RH  070%=      5-min Rain = 0
KTH1 150723Z 20005KT 24/18 A2982 RMK A01 T02410183  RH  070%=      5-min Rain = 0
KTH1 150724Z 19005KT 24/18 A2982 RMK A01 T02410183  RH  070%=      5-min Rain = 0
KTH1 150725Z 19004KT 24/18 A2982 RMK A01 T02410183  RH  070%=      5-min Rain = 0
KTH1 150726Z 20005KT 24/18 A2982 RMK A01 T02410183  RH  070%=      5-min Rain = 0
KTH1 150727Z 19006KT 24/18 A2982 RMK A01 T02410183  RH  070%=      5-min Rain = 0
KTH1 150728Z 19004KT 24/18 A2982 RMK A01 T02410183  RH  070%=      5-min Rain = 0
KTH1 150729Z 18003KT 24/18 A2982 RMK A01 T02420183  RH  070%=      5-min Rain = 0
KTH1 150730Z 19005KT 24/18 A2982 RMK A01 T02420183  RH  070%=      5-min Rain = 0
KTH1 150731Z 19004KT 24/18 A2982 RMK A01 T02420183  RH  070%=      5-min Rain = 0
KTH1 150732Z 18003KT 24/18 A2982 RMK A01 T02420183  RH  070%=      5-min Rain = 0
KTH1 150733Z 18006KT 24/18 A2982 RMK A01 T02430184  RH  070%=      5-min Rain = 0
KTH1 150734Z 17004KT 24/18 A2982 RMK A01 T02430183  RH  069%=      5-min Rain = 0
KTH1 150735Z 18004KT 24/18 A2982 RMK A01 T02430184  RH  069%=      5-min Rain = 0
KTH1 150736Z 17004KT 24/18 A2982 RMK A01 T02430184  RH  069%=      5-min Rain = 0
KTH1 150737Z 16003KT 24/18 A2982 RMK A01 T02430184  RH  069%=      5-min Rain = 0
KTH1 150738Z 16003KT 24/18 A2982 RMK A01 T02430184  RH  070%=      5-min Rain = 0
KTH1 150739Z 16003KT 24/18 A2982 RMK A01 T02430184  RH  070%=      5-min Rain = 0
KTH1 150740Z 18003KT 24/18 A2982 RMK A01 T02420184  RH  070%=      5-min Rain = 0
KTH1 150741Z 17005KT 24/18 A2982 RMK A01 T02420184  RH  070%=      5-min Rain = 0
KTH1 150742Z 17003KT 24/18 A2982 RMK A01 T02420184  RH  070%=      5-min Rain = 0
KTH1 150743Z 17004KT 24/18 A2982 RMK A01 T02420184  RH  070%=      5-min Rain = 0
KTH1 150744Z 17004KT 24/18 A2982 RMK A01 T02420184  RH  070%=      5-min Rain = 0
KTH1 150745Z 17004KT 24/18 A2982 RMK A01 T02410184  RH  070%=      5-min Rain = 0
KTH1 150746Z 17004KT 24/18 A2982 RMK A01 T02410184  RH  071%=      5-min Rain = 0
KTH1 150747Z 17004KT 24/18 A2982 RMK A01 T02400184  RH  071%=      5-min Rain = 0
KTH1 150748Z 17004KT 24/18 A2981 RMK A01 T02400184  RH  071%=      5-min Rain = 0
KTH1 150749Z 17004KT 24/18 A2981 RMK A01 T02390184  RH  071%=      5-min Rain = 0
KTH1 150750Z 16004KT 24/18 A2981 RMK A01 T02390184  RH  072%=      5-min Rain = 0
KTH1 150751Z 16005KT 24/18 A2981 RMK A01 T02380184  RH  072%=      5-min Rain = 0
KTH1 150752Z 16006KT 24/19 A2981 RMK A01 T02380185  RH  072%=      5-min Rain = 0
KTH1 150753Z 16005KT 24/19 A2981 RMK A01 T02370185  RH  072%=      5-min Rain = 0
KTH1 150754Z 16005KT 24/19 A2981 RMK A01 T02370185  RH  073%=      5-min Rain = 0
KTH1 150755Z 17006KT 24/19 A2981 RMK A01 T02360185  RH  073%=      5-min Rain = 0
KTH1 150756Z 17006KT 24/18 A2981 RMK A01 T02360184  RH  073%=      5-min Rain = 0
KTH1 150757Z 16005KT 24/19 A2981 RMK A01 T02360185  RH  073%=      5-min Rain = 0
KTH1 150758Z 17005KT 24/19 A2981 RMK A01 T02360185  RH  073%=      5-min Rain = 0
KTH1 150759Z 16005KT 24/19 A2981 RMK A01 T02360185  RH  073%=      5-min Rain = 0
KTH1 150800Z 17006KT 24/19 A2981 RMK A01 T02360185  RH  073%=      5-min Rain = 0
KTH1 150801Z 16006KT 24/18 A2981 RMK A01 T02360184  RH  073%=      5-min Rain = 0
KTH1 150802Z 17005KT 24/19 A2981 RMK A01 T02360185  RH  073%=      5-min Rain = 0
KTH1 150803Z 17005KT 24/19 A2981 RMK A01 T02370185  RH  073%=      5-min Rain = 0
KTH1 150804Z 16006KT 24/19 A2981 RMK A01 T02380185  RH  072%=      5-min Rain = 0
KTH1 150805Z 17006KT 24/19 A2981 RMK A01 T02380185  RH  072%=      5-min Rain = 0
KTH1 150806Z 17006KT 24/19 A2981 RMK A01 T02370185  RH  072%=      5-min Rain = 0
KTH1 150807Z 17007KT 24/19 A2981 RMK A01 T02370185  RH  072%=      5-min Rain = 0
KTH1 150808Z 17007KT 24/19 A2981 RMK A01 T02380185  RH  072%=      5-min Rain = 0
KTH1 150809Z 16005KT 24/19 A2981 RMK A01 T02390185  RH  072%=      5-min Rain = 0
KTH1 150810Z 16005KT 24/19 A2981 RMK A01 T02390186  RH  072%=      5-min Rain = 0
KTH1 150811Z 16005KT 24/19 A2981 RMK A01 T02390186  RH  072%=      5-min Rain = 0
KTH1 150812Z 17004KT 24/19 A2981 RMK A01 T02390186  RH  072%=      5-min Rain = 0
KTH1 150813Z 17006KT 24/19 A2981 RMK A01 T02380186  RH  072%=      5-min Rain = 0
KTH1 150814Z 16005KT 24/19 A2981 RMK A01 T02380186  RH  072%=      5-min Rain = 0
KTH1 150815Z 16006KT 24/19 A2981 RMK A01 T02380186  RH  073%=      5-min Rain = 0
KTH1 150816Z 17006KT 24/19 A2981 RMK A01 T02380186  RH  073%=      5-min Rain = 0
KTH1 150817Z 16006KT 24/19 A2981 RMK A01 T02380186  RH  073%=      5-min Rain = 0
KTH1 150818Z 17005KT 24/19 A2981 RMK A01 T02380186  RH  073%=      5-min Rain = 0
KTH1 150819Z 17005KT 24/19 A2981 RMK A01 T02380186  RH  073%=      5-min Rain = 0
KTH1 150820Z 17006KT 24/19 A2981 RMK A01 T02380186  RH  073%=      5-min Rain = 0
KTH1 150821Z 17006KT 24/19 A2981 RMK A01 T02380186  RH  073%=      5-min Rain = 0
KTH1 150822Z 17006KT 24/19 A2981 RMK A01 T02380186  RH  073%=      5-min Rain = 0
KTH1 150823Z 18006KT 24/19 A2981 RMK A01 T02380187  RH  073%=      5-min Rain = 0
KTH1 150824Z 17007KT 24/19 A2981 RMK A01 T02380187  RH  073%=      5-min Rain = 0
KTH1 150825Z 16005KT 24/19 A2981 RMK A01 T02390187  RH  073%=      5-min Rain = 0
KTH1 150826Z 17005KT 24/19 A298 RMK A01 T02390187  RH  073%=      5-min Rain = 0
KTH1 150827Z 17005KT 24/19 A298 RMK A01 T02390187  RH  073%=      5-min Rain = 0
KTH1 150828Z 17004KT 24/19 A298 RMK A01 T02390187  RH  073%=      5-min Rain = 0
KTH1 150829Z 17006KT 24/19 A298 RMK A01 T02390187  RH  073%=      5-min Rain = 0
KTH1 150830Z 17005KT 24/19 A298 RMK A01 T02390188  RH  073%=      5-min Rain = 0
KTH1 150831Z 17005KT 24/19 A298 RMK A01 T02380188  RH  073%=      5-min Rain = 0
KTH1 150832Z 16006KT 24/19 A298 RMK A01 T02380187  RH  073%=      5-min Rain = 0
KTH1 150833Z 16006KT 24/19 A298 RMK A01 T02380188  RH  073%=      5-min Rain = 0
KTH1 150834Z 17005KT 24/19 A298 RMK A01 T02380188  RH  074%=      5-min Rain = 0
KTH1 150835Z 16005KT 24/19 A298 RMK A01 T02380188  RH  074%=      5-min Rain = 0
KTH1 150836Z 17006KT 24/19 A298 RMK A01 T02380188  RH  074%=      5-min Rain = 0
KTH1 150837Z 17006KT 24/19 A298 RMK A01 T02380188  RH  074%=      5-min Rain = 0
KTH1 150838Z 17005KT 24/19 A298 RMK A01 T02380188  RH  074%=      5-min Rain = 0
KTH1 150839Z 16005KT 24/19 A298 RMK A01 T02380188  RH  074%=      5-min Rain = 0
KTH1 150840Z 16006KT 24/19 A298 RMK A01 T02380188  RH  074%=      5-min Rain = 0
KTH1 150841Z 17005KT 24/19 A298 RMK A01 T02370188  RH  074%=      5-min Rain = 0
KTH1 150842Z 17005KT 24/19 A298 RMK A01 T02370189  RH  074%=      5-min Rain = 0
KTH1 150843Z 16005KT 24/19 A298 RMK A01 T02370189  RH  074%=      5-min Rain = 0
KTH1 150844Z 16005KT 24/19 A298 RMK A01 T02360188  RH  074%=      5-min Rain = 0
KTH1 150845Z 16006KT 24/19 A298 RMK A01 T02360189  RH  075%=      5-min Rain = 0
KTH1 150846Z 16006KT 24/19 A298 RMK A01 T02360189  RH  075%=      5-min Rain = 0
KTH1 150847Z 16008KT 24/19 A2979 RMK A01 T02360189  RH  075%=      5-min Rain = 0
KTH1 150848Z 16006KT 24/19 A2979 RMK A01 T02360189  RH  075%=      5-min Rain = 0
KTH1 150849Z 16007KT 24/19 A2979 RMK A01 T02360189  RH  075%=      5-min Rain = 0
KTH1 150850Z 17006KT 24/19 A2979 RMK A01 T02360189  RH  075%=      5-min Rain = 0
KTH1 150851Z 16007KT 24/19 A2979 RMK A01 T02360189  RH  075%=      5-min Rain = 0
KTH1 150852Z 16007KT 24/19 A2979 RMK A01 T02360189  RH  075%=      5-min Rain = 0
KTH1 150853Z 16008KT 24/19 A2979 RMK A01 T02360189  RH  075%=      5-min Rain = 0
KTH1 150854Z 16006KT 24/19 A2979 RMK A01 T02360189  RH  075%=      5-min Rain = 0
KTH1 150855Z 16007KT 24/19 A2979 RMK A01 T02360189  RH  075%=      5-min Rain = 0
KTH1 150856Z 16006KT 24/19 A2979 RMK A01 T02360189  RH  075%=      5-min Rain = 0
KTH1 150857Z 16006KT 24/19 A2979 RMK A01 T02360189  RH  075%=      5-min Rain = 0
KTH1 150858Z 16007KT 24/19 A2979 RMK A01 T02350189  RH  076%=      5-min Rain = 0
KTH1 150859Z 17007KT 24/19 A2979 RMK A01 T02350189  RH  076%=      5-min Rain = 0
KTH1 150900Z 16008KT 24/19 A2979 RMK A01 T02350190  RH  076%=      5-min Rain = 0
KTH1 150901Z 16007KT 23/19 A2979 RMK A01 T02340189  RH  076%=      5-min Rain = 0
KTH1 150902Z 16007KT 23/19 A2979 RMK A01 T02340190  RH  076%=      5-min Rain = 0
KTH1 150903Z 16008KT 23/19 A2979 RMK A01 T02340189  RH  076%=      5-min Rain = 0
KTH1 150904Z 16006KT 23/19 A2979 RMK A01 T02340190  RH  076%=      5-min Rain = 0
KTH1 150905Z 17007KT 23/19 A2979 RMK A01 T02340190  RH  076%=      5-min Rain = 0
KTH1 150906Z 16006KT 23/19 A2979 RMK A01 T02340190  RH  076%=      5-min Rain = 0
KTH1 150907Z 17009G14KT 23/19 A2979 RMK A01 T02330190  RH  076%=      5-min Rain = 0
KTH1 150908Z 16009KT 23/19 A2979 RMK A01 T02330189  RH  076%=      5-min Rain = 0
KTH1 150909Z 17009KT 23/19 A2979 RMK A01 T02340190  RH  076%=      5-min Rain = 0
KTH1 150910Z 17008KT 23/19 A2979 RMK A01 T02340190  RH  076%=      5-min Rain = 0
KTH1 150911Z 16008KT 23/19 A2978 RMK A01 T02340190  RH  076%=      5-min Rain = 0
KTH1 150912Z 16007G13KT 23/19 A2978 RMK A01 T02340190  RH  076%=      5-min Rain = 0
KTH1 150913Z 17007KT 23/19 A2978 RMK A01 T02340190  RH  076%=      5-min Rain = 0
KTH1 150914Z 17007KT 23/19 A2978 RMK A01 T02340190  RH  076%=      5-min Rain = 0
KTH1 150915Z 16008KT 23/19 A2978 RMK A01 T02330190  RH  077%=      5-min Rain = 0
KTH1 150916Z 17008KT 23/19 A2979 RMK A01 T02330190  RH  077%=      5-min Rain = 0
KTH1 150917Z 17008KT 23/19 A2979 RMK A01 T02330190  RH  077%=      5-min Rain = 0
KTH1 150918Z 16007KT 23/19 A2979 RMK A01 T02340190  RH  076%=      5-min Rain = 0
KTH1 150919Z 17006KT 23/19 A2979 RMK A01 T02340190  RH  076%=      5-min Rain = 0
KTH1 150920Z 16007KT 23/19 A2979 RMK A01 T02340190  RH  077%=      5-min Rain = 0
KTH1 150921Z 16008KT 23/19 A2979 RMK A01 T02340190  RH  077%=      5-min Rain = 0
KTH1 150922Z 16007KT 23/19 A2979 RMK A01 T02340190  RH  077%=      5-min Rain = 0
KTH1 150923Z 17006KT 23/19 A2979 RMK A01 T02340190  RH  077%=      5-min Rain = 0
KTH1 150924Z 16007KT 23/19 A2979 RMK A01 T02330190  RH  077%=      5-min Rain = 0
KTH1 150925Z 16007KT 23/19 A2978 RMK A01 T02330190  RH  077%=      5-min Rain = 0
KTH1 150926Z 15006KT 23/19 A2978 RMK A01 T02330191  RH  077%=      5-min Rain = 0
KTH1 150927Z 16008KT 23/19 A2978 RMK A01 T02320190  RH  077%=      5-min Rain = 0
KTH1 150928Z 16008KT 23/19 A2978 RMK A01 T02320190  RH  077%=      5-min Rain = 0
KTH1 150929Z 16008KT 23/19 A2978 RMK A01 T02320191  RH  078%=      5-min Rain = 0
KTH1 150930Z 16006KT 23/19 A2979 RMK A01 T02320191  RH  078%=      5-min Rain = 0
KTH1 150931Z 15005KT 23/19 A2979 RMK A01 T02310191  RH  078%=      5-min Rain = 0
KTH1 150932Z 16006KT 23/19 A2979 RMK A01 T02310191  RH  078%=      5-min Rain = 0
KTH1 150933Z 16008KT 23/19 A2979 RMK A01 T02310191  RH  078%=      5-min Rain = 0
KTH1 150934Z 16008KT 23/19 A2979 RMK A01 T02310191  RH  078%=      5-min Rain = 0
KTH1 150935Z 15007G12KT 23/19 A2979 RMK A01 T02310190  RH  078%=      5-min Rain = 0
KTH1 150936Z 16007KT 23/19 A2979 RMK A01 T02310190  RH  078%=      5-min Rain = 0
KTH1 150937Z 16007KT 23/19 A2979 RMK A01 T02310191  RH  078%=      5-min Rain = 0
KTH1 150938Z 16005KT 23/19 A2979 RMK A01 T02310191  RH  078%=      5-min Rain = 0
KTH1 150939Z 16006KT 23/19 A2979 RMK A01 T02310191  RH  078%=      5-min Rain = 0
KTH1 150940Z 16007KT 23/19 A2978 RMK A01 T02300190  RH  078%=      5-min Rain = 0
KTH1 150941Z 16006KT 23/19 A2978 RMK A01 T02300190  RH  078%=      5-min Rain = 0
KTH1 150942Z 15005KT 23/19 A2978 RMK A01 T02300191  RH  078%=      5-min Rain = 0
KTH1 150943Z 16006KT 23/19 A2979 RMK A01 T02290190  RH  079%=      5-min Rain = 0
KTH1 150944Z 16006KT 23/19 A2979 RMK A01 T02290190  RH  079%=      5-min Rain = 0
KTH1 150945Z 15006KT 23/19 A2979 RMK A01 T02290190  RH  079%=      5-min Rain = 0
KTH1 150946Z 15006KT 23/19 A2979 RMK A01 T02290190  RH  079%=      5-min Rain = 0
KTH1 150947Z 15006KT 23/19 A2979 RMK A01 T02280190  RH  079%=      5-min Rain = 0
KTH1 150948Z 15006KT 23/19 A2979 RMK A01 T02290190  RH  079%=      5-min Rain = 0
KTH1 150949Z 15006KT 23/19 A2979 RMK A01 T02280190  RH  079%=      5-min Rain = 0
KTH1 150950Z 15007KT 23/19 A2979 RMK A01 T02280190  RH  079%=      5-min Rain = 0
KTH1 150951Z 15005KT 23/19 A2979 RMK A01 T02280190  RH  079%=      5-min Rain = 0
KTH1 150952Z 15005KT 23/19 A2979 RMK A01 T02270190  RH  080%=      5-min Rain = 0
KTH1 150953Z 15007KT 23/19 A2979 RMK A01 T02270190  RH  080%=      5-min Rain = 0
KTH1 150954Z 15006KT 23/19 A2979 RMK A01 T02270190  RH  080%=      5-min Rain = 0
KTH1 150955Z 14006KT 23/19 A2979 RMK A01 T02260190  RH  080%=      5-min Rain = 0
KTH1 150956Z 14005KT 23/19 A2979 RMK A01 T02260190  RH  080%=      5-min Rain = 0
KTH1 150957Z 14005KT 23/19 A2979 RMK A01 T02250190  RH  080%=      5-min Rain = 0
KTH1 150958Z 14006KT 23/19 A2979 RMK A01 T02250190  RH  080%=      5-min Rain = 0
KTH1 150959Z 14005KT 23/19 A2979 RMK A01 T02250190  RH  080%=      5-min Rain = 0
KTH1 151000Z 15005KT 23/19 A2979 RMK A01 T02250190  RH  081%=      5-min Rain = 0
KTH1 151001Z 15005KT 23/19 A2979 RMK A01 T02250190  RH  081%=      5-min Rain = 0
KTH1 151002Z 15005KT 22/19 A2979 RMK A01 T02240190  RH  081%=      5-min Rain = 0
KTH1 151003Z 15006KT 22/19 A2979 RMK A01 T02240190  RH  081%=      5-min Rain = 0
KTH1 151004Z 15005KT 22/19 A2979 RMK A01 T02240190  RH  081%=      5-min Rain = 0
KTH1 151005Z 15006KT 22/19 A2979 RMK A01 T02230190  RH  082%=      5-min Rain = 0
KTH1 151006Z 15006KT 22/19 A2979 RMK A01 T02220190  RH  082%=      5-min Rain = 0
KTH1 151007Z 15006KT 22/19 A2979 RMK A01 T02220190  RH  082%=      5-min Rain = 0
KTH1 151008Z 15006KT 22/19 A2978 RMK A01 T02220190  RH  082%=      5-min Rain = 0
KTH1 151009Z 16007KT 22/19 A2978 RMK A01 T02220190  RH  082%=      5-min Rain = 0
KTH1 151010Z 16006KT 22/19 A2978 RMK A01 T02220190  RH  082%=      5-min Rain = 0
KTH1 151011Z 16005KT 22/19 A2978 RMK A01 T02220190  RH  082%=      5-min Rain = 0
KTH1 151012Z 16006KT 22/19 A2978 RMK A01 T02220191  RH  082%=      5-min Rain = 0
KTH1 151013Z 15006KT 22/19 A2978 RMK A01 T02210190  RH  083%=      5-min Rain = 0
KTH1 151014Z 16007KT 22/19 A2978 RMK A01 T02210190  RH  083%=      5-min Rain = 0
KTH1 151015Z 15006KT 22/19 A2978 RMK A01 T02210190  RH  083%=      5-min Rain = 0
KTH1 151016Z 16005KT 22/19 A2978 RMK A01 T02210190  RH  083%=      5-min Rain = 0
KTH1 151017Z 16005KT 22/19 A2978 RMK A01 T02210190  RH  083%=      5-min Rain = 0
KTH1 151018Z 16007KT 22/19 A2978 RMK A01 T02210191  RH  083%=      5-min Rain = 0
KTH1 151019Z 16007KT 22/19 A2978 RMK A01 T02210191  RH  083%=      5-min Rain = 0
KTH1 151020Z 16007KT 22/19 A2978 RMK A01 T02210191  RH  083%=      5-min Rain = 0
KTH1 151021Z 16006KT 22/19 A2978 RMK A01 T02210191  RH  083%=      5-min Rain = 0
KTH1 151022Z 16007KT 22/19 A2978 RMK A01 T02210191  RH  083%=      5-min Rain = 0
KTH1 151023Z 16006KT 22/19 A2978 RMK A01 T02210191  RH  083%=      5-min Rain = 0
KTH1 151024Z 15007KT 22/19 A2978 RMK A01 T02210191  RH  083%=      5-min Rain = 0
KTH1 151025Z 15008KT 22/19 A2978 RMK A01 T02210191  RH  083%=      5-min Rain = 0
KTH1 151026Z 16007KT 22/19 A2978 RMK A01 T02210191  RH  083%=      5-min Rain = 0
KTH1 151027Z 15007KT 22/19 A2978 RMK A01 T02210191  RH  083%=      5-min Rain = 0
KTH1 151028Z 16007KT 22/19 A2978 RMK A01 T02210191  RH  083%=      5-min Rain = 0
KTH1 151029Z 15007KT 22/19 A2978 RMK A01 T02210191  RH  083%=      5-min Rain = 0
KTH1 151030Z 16006KT 22/19 A2978 RMK A01 T02210191  RH  083%=      5-min Rain = 0
KTH1 151031Z 15007KT 22/19 A2978 RMK A01 T02210192  RH  083%=      5-min Rain = 0
KTH1 151032Z 15008KT 22/19 A2978 RMK A01 T02210191  RH  083%=      5-min Rain = 0
KTH1 151033Z 15007KT 22/19 A2978 RMK A01 T02210192  RH  084%=      5-min Rain = 0
KTH1 151034Z 15007KT 22/19 A2978 RMK A01 T02200191  RH  084%=      5-min Rain = 0
KTH1 151035Z 16008KT 22/19 A2978 RMK A01 T02200192  RH  084%=      5-min Rain = 0
KTH1 151036Z 15007KT 22/19 A2978 RMK A01 T02200192  RH  084%=      5-min Rain = 0
KTH1 151037Z 15007KT 22/19 A2978 RMK A01 T02200191  RH  084%=      5-min Rain = 0
KTH1 151038Z 15008KT 22/19 A2978 RMK A01 T02200192  RH  084%=      5-min Rain = 0
KTH1 151039Z 16008KT 22/19 A2978 RMK A01 T02200192  RH  084%=      5-min Rain = 0
KTH1 151040Z 16008KT 22/19 A2978 RMK A01 T02200192  RH  084%=      5-min Rain = 0
KTH1 151041Z 16008KT 22/19 A2978 RMK A01 T02200191  RH  084%=      5-min Rain = 0
KTH1 151042Z 16008KT 22/19 A2978 RMK A01 T02200191  RH  084%=      5-min Rain = 0
KTH1 151043Z 16010KT 22/19 A2978 RMK A01 T02210192  RH  084%=      5-min Rain = 0
KTH1 151044Z 16007KT 22/19 A2978 RMK A01 T02210192  RH  084%=      5-min Rain = 0
KTH1 151045Z 16008KT 22/19 A2978 RMK A01 T02210192  RH  084%=      5-min Rain = 0
KTH1 151046Z 16007KT 22/19 A2978 RMK A01 T02210192  RH  084%=      5-min Rain = 0
KTH1 151047Z 16008KT 22/19 A2978 RMK A01 T02210192  RH  084%=      5-min Rain = 0
KTH1 151048Z 16007KT 22/19 A2978 RMK A01 T02210192  RH  083%=      5-min Rain = 0
KTH1 151049Z 15008KT 22/19 A2978 RMK A01 T02210192  RH  084%=      5-min Rain = 0
KTH1 151050Z 16009KT 22/19 A2978 RMK A01 T02210192  RH  084%=      5-min Rain = 0
KTH1 151051Z 16008KT 22/19 A2978 RMK A01 T02210192  RH  084%=      5-min Rain = 0
KTH1 151052Z 16007KT 22/19 A2978 RMK A01 T02210192  RH  083%=      5-min Rain = 0
KTH1 151053Z 16006KT 22/19 A2978 RMK A01 T02210192  RH  084%=      5-min Rain = 0
KTH1 151054Z 16007G12KT 22/19 A2978 RMK A01 T02210192  RH  084%=      5-min Rain = 0
KTH1 151055Z 16007KT 22/19 A2978 RMK A01 T02210193  RH  084%=      5-min Rain = 0
KTH1 151056Z 16006KT 22/19 A2978 RMK A01 T02210192  RH  083%=      5-min Rain = 0
KTH1 151057Z 16008KT 22/19 A2978 RMK A01 T02210192  RH  083%=      5-min Rain = 0
KTH1 151058Z 16006KT 22/19 A2978 RMK A01 T02210192  RH  084%=      5-min Rain = 0
KTH1 151059Z 16008KT 22/19 A2978 RMK A01 T02210192  RH  084%=      5-min Rain = 0
KTH1 151100Z 16006KT 22/19 A2978 RMK A01 T02210193  RH  084%=      5-min Rain = 0
KTH1 151101Z 16007G12KT 22/19 A2978 RMK A01 T02210192  RH  084%=      5-min Rain = 0
KTH1 151102Z 16009KT 22/19 A2978 RMK A01 T02210193  RH  084%=      5-min Rain = 0
KTH1 151103Z 16006KT 22/19 A2978 RMK A01 T02210192  RH  084%=      5-min Rain = 0
KTH1 151104Z 15005KT 22/19 A2978 RMK A01 T02210192  RH  084%=      5-min Rain = 0
KTH1 151105Z 16006KT 22/19 A2978 RMK A01 T02210192  RH  084%=      5-min Rain = 0
KTH1 151106Z 16005KT 22/19 A2978 RMK A01 T02200193  RH  084%=      5-min Rain = 0
KTH1 151107Z 15006KT 22/19 A2978 RMK A01 T02200192  RH  084%=      5-min Rain = 0
KTH1 151108Z 15007KT 22/19 A2978 RMK A01 T02200192  RH  085%=      5-min Rain = 0
KTH1 151109Z 16005KT 22/19 A2978 RMK A01 T02190192  RH  085%=      5-min Rain = 0
KTH1 151110Z 15008KT 22/19 A2978 RMK A01 T02190193  RH  085%=      5-min Rain = 0
KTH1 151111Z 14006KT 22/19 A2978 RMK A01 T02190192  RH  085%=      5-min Rain = 0
KTH1 151112Z 16008KT 22/19 A2978 RMK A01 T02190192  RH  085%=      5-min Rain = 0
KTH1 151113Z 14006KT 22/19 A2978 RMK A01 T02200192  RH  084%=      5-min Rain = 0
KTH1 151114Z 15006KT 22/19 A2978 RMK A01 T02200193  RH  084%=      5-min Rain = 0
KTH1 151115Z 15006KT 22/19 A2978 RMK A01 T02200193  RH  085%=      5-min Rain = 0
KTH1 151116Z 15007KT 22/19 A2979 RMK A01 T02200193  RH  085%=      5-min Rain = 0
KTH1 151117Z 14007KT 22/19 A2979 RMK A01 T02190193  RH  085%=      5-min Rain = 0
KTH1 151118Z 15006KT 22/19 A2979 RMK A01 T02190193  RH  085%=      5-min Rain = 0
KTH1 151119Z 14006KT 22/19 A2979 RMK A01 T02190193  RH  085%=      5-min Rain = 0
KTH1 151120Z 14005KT 22/19 A2979 RMK A01 T02190193  RH  085%=      5-min Rain = 0
KTH1 151121Z 15006KT 22/19 A2979 RMK A01 T02190193  RH  085%=      5-min Rain = 0
KTH1 151122Z 14006KT 22/19 A2979 RMK A01 T02180193  RH  085%=      5-min Rain = 0
KTH1 151123Z 14005KT 22/19 A2979 RMK A01 T02180193  RH  086%=      5-min Rain = 0
KTH1 151124Z 14005KT 22/19 A2979 RMK A01 T02180193  RH  086%=      5-min Rain = 0
KTH1 151125Z 14007KT 22/19 A2979 RMK A01 T02170193  RH  086%=      5-min Rain = 0
KTH1 151126Z 14006KT 22/19 A2979 RMK A01 T02180193  RH  086%=      5-min Rain = 0
KTH1 151127Z 14005KT 22/19 A2979 RMK A01 T02180193  RH  086%=      5-min Rain = 0
KTH1 151128Z 14007KT 22/19 A2979 RMK A01 T02180193  RH  086%=      5-min Rain = 0
KTH1 151129Z 15008KT 22/19 A2979 RMK A01 T02180193  RH  086%=      5-min Rain = 0
KTH1 151130Z 15006KT 22/19 A2979 RMK A01 T02180193  RH  086%=      5-min Rain = 0
KTH1 151131Z 14007KT 22/19 A2978 RMK A01 T02180194  RH  086%=      5-min Rain = 0
KTH1 151132Z 15007KT 22/19 A2979 RMK A01 T02190194  RH  086%=      5-min Rain = 0
KTH1 151133Z 15007KT 22/19 A2979 RMK A01 T02190194  RH  086%=      5-min Rain = 0
KTH1 151134Z 15006KT 22/19 A2979 RMK A01 T02180194  RH  086%=      5-min Rain = 0
KTH1 151135Z 15005KT 22/19 A2979 RMK A01 T02180194  RH  086%=      5-min Rain = 0
KTH1 151136Z 16007KT 22/20 A2979 RMK A01 T02180195  RH  086%=      5-min Rain = 0
KTH1 151137Z 16007KT 22/20 A2979 RMK A01 T02180195  RH  086%=      5-min Rain = 0
KTH1 151138Z 15009KT 22/19 A2979 RMK A01 T02180194  RH  086%=      5-min Rain = 0
KTH1 151139Z 16008KT 22/19 A2979 RMK A01 T02180194  RH  086%=      5-min Rain = 0
KTH1 151140Z 15007KT 22/20 A2979 RMK A01 T02180195  RH  086%=      5-min Rain = 0
KTH1 151141Z 16007KT 22/20 A2979 RMK A01 T02180195  RH  086%=      5-min Rain = 0
KTH1 151142Z 16006KT 22/20 A2979 RMK A01 T02190195  RH  086%=      5-min Rain = 0
KTH1 151143Z 16007KT 22/20 A2979 RMK A01 T02190195  RH  086%=      5-min Rain = 0
KTH1 151144Z 15008KT 22/20 A2979 RMK A01 T02190195  RH  086%=      5-min Rain = 0
KTH1 151145Z 15006KT 22/20 A2979 RMK A01 T02190195  RH  086%=      5-min Rain = 0
KTH1 151146Z 16006KT 22/20 A2979 RMK A01 T02190195  RH  086%=      5-min Rain = 0
KTH1 151147Z 15006KT 22/20 A2979 RMK A01 T02190195  RH  086%=      5-min Rain = 0
KTH1 151148Z 16006KT 22/20 A2979 RMK A01 T02200196  RH  086%=      5-min Rain = 0
KTH1 151149Z 16007KT 22/20 A2979 RMK A01 T02200196  RH  086%=      5-min Rain = 0
KTH1 151150Z 16007KT 22/20 A2979 RMK A01 T02200196  RH  086%=      5-min Rain = 0
KTH1 151151Z 16008KT 22/20 A2979 RMK A01 T02200196  RH  086%=      5-min Rain = 0
KTH1 151152Z 16006KT 22/20 A298 RMK A01 T02210197  RH  086%=      5-min Rain = 0
KTH1 151153Z 16007KT 22/20 A298 RMK A01 T02220197  RH  086%=      5-min Rain = 0
KTH1 151154Z 17007KT 22/20 A298 RMK A01 T02220197  RH  086%=      5-min Rain = 0
KTH1 151155Z 15006KT 22/20 A298 RMK A01 T02220197  RH  086%=      5-min Rain = 0
KTH1 151156Z 17007KT 22/20 A298 RMK A01 T02220197  RH  085%=      5-min Rain = 0
KTH1 151157Z 17007KT 22/20 A298 RMK A01 T02220197  RH  086%=      5-min Rain = 0
KTH1 151158Z 17006KT 22/20 A298 RMK A01 T02230197  RH  086%=      5-min Rain = 0
KTH1 151159Z 17005KT 22/20 A298 RMK A01 T02230197  RH  085%=      5-min Rain = 0
KTH1 151200Z 17007KT 22/20 A298 RMK A01 T02230198  RH  085%=      5-min Rain = 0
KTH1 151201Z 16006KT 22/20 A298 RMK A01 T02240198  RH  085%=      5-min Rain = 0
KTH1 151202Z 15006KT 22/20 A298 RMK A01 T02240198  RH  085%=      5-min Rain = 0
KTH1 151203Z 16005KT 22/20 A298 RMK A01 T02240198  RH  085%=      5-min Rain = 0
KTH1 151204Z 17005KT 23/20 A298 RMK A01 T02250198  RH  085%=      5-min Rain = 0
KTH1 151205Z 17007KT 22/20 A298 RMK A01 T02240198  RH  085%=      5-min Rain = 0
KTH1 151206Z 17007KT 23/20 A2981 RMK A01 T02250199  RH  085%=      5-min Rain = 0
KTH1 151207Z 17008KT 23/20 A298 RMK A01 T02260199  RH  085%=      5-min Rain = 0
KTH1 151208Z 16006KT 23/20 A298 RMK A01 T02260199  RH  085%=      5-min Rain = 0
KTH1 151209Z 17008KT 23/20 A298 RMK A01 T02260200  RH  085%=      5-min Rain = 0
KTH1 151210Z 17006KT 23/20 A298 RMK A01 T02270200  RH  085%=      5-min Rain = 0
KTH1 151211Z 16007KT 23/20 A298 RMK A01 T02270200  RH  084%=      5-min Rain = 0
KTH1 151212Z 17007KT 23/20 A2981 RMK A01 T02280200  RH  084%=      5-min Rain = 0
KTH1 151213Z 17008KT 23/20 A2981 RMK A01 T02280200  RH  084%=      5-min Rain = 0
KTH1 151214Z 18008KT 23/20 A2981 RMK A01 T02280200  RH  084%=      5-min Rain = 0
KTH1 151215Z 17008KT 23/20 A2981 RMK A01 T02290201  RH  084%=      5-min Rain = 0
KTH1 151216Z 16006KT 23/20 A2981 RMK A01 T02300201  RH  084%=      5-min Rain = 0
KTH1 151217Z 16007KT 23/20 A2981 RMK A01 T02300201  RH  084%=      5-min Rain = 0
KTH1 151218Z 16008KT 23/20 A2981 RMK A01 T02300201  RH  084%=      5-min Rain = 0
KTH1 151219Z 16007KT 23/20 A2981 RMK A01 T02310202  RH  084%=      5-min Rain = 0
KTH1 151220Z 17009G14KT 23/20 A2981 RMK A01 T02310202  RH  084%=      5-min Rain = 0
KTH1 151221Z 17008KT 23/20 A2981 RMK A01 T02320202  RH  083%=      5-min Rain = 0
KTH1 151222Z 17009KT 23/20 A2981 RMK A01 T02320202  RH  083%=      5-min Rain = 0
KTH1 151223Z 16006KT 23/20 A2981 RMK A01 T02330203  RH  083%=      5-min Rain = 0
KTH1 151224Z 16006KT 23/20 A2981 RMK A01 T02330203  RH  083%=      5-min Rain = 0
KTH1 151225Z 17006KT 23/20 A2981 RMK A01 T02340203  RH  083%=      5-min Rain = 0
KTH1 151226Z 17006KT 23/20 A2981 RMK A01 T02340204  RH  083%=      5-min Rain = 0
KTH1 151227Z 17007KT 24/20 A2981 RMK A01 T02350204  RH  083%=      5-min Rain = 0
KTH1 151228Z 17008KT 24/20 A2981 RMK A01 T02350204  RH  082%=      5-min Rain = 0
KTH1 151229Z 17006KT 24/20 A2981 RMK A01 T02360204  RH  083%=      5-min Rain = 0
KTH1 151230Z 17007KT 24/21 A2981 RMK A01 T02360205  RH  083%=      5-min Rain = 0
KTH1 151231Z 17008KT 24/21 A2981 RMK A01 T02370205  RH  082%=      5-min Rain = 0
KTH1 151232Z 16007KT 24/21 A2981 RMK A01 T02370205  RH  082%=      5-min Rain = 0
KTH1 151233Z 17009KT 24/21 A2981 RMK A01 T02370205  RH  082%=      5-min Rain = 0
KTH1 151234Z 18010KT 24/21 A2981 RMK A01 T02380205  RH  082%=      5-min Rain = 0
KTH1 151235Z 16006KT 24/21 A2981 RMK A01 T02380206  RH  082%=      5-min Rain = 0
KTH1 151236Z 17009KT 24/21 A2981 RMK A01 T02390206  RH  082%=      5-min Rain = 0
KTH1 151237Z 17006KT 24/21 A2981 RMK A01 T02390206  RH  082%=      5-min Rain = 0
KTH1 151238Z 18008G13KT 24/21 A2981 RMK A01 T02390206  RH  082%=      5-min Rain = 0
KTH1 151239Z 17011KT 24/21 A2981 RMK A01 T02390206  RH  082%=      5-min Rain = 0
KTH1 151240Z 16008KT 24/21 A2981 RMK A01 T02390206  RH  082%=      5-min Rain = 0
KTH1 151241Z 17010KT 24/21 A2981 RMK A01 T02380206  RH  082%=      5-min Rain = 0
KTH1 151242Z 17010KT 24/21 A2981 RMK A01 T02380206  RH  082%=      5-min Rain = 0
KTH1 151243Z 18008KT 24/21 A2981 RMK A01 T02370206  RH  083%=      5-min Rain = 0
KTH1 151244Z 18009KT 24/21 A2981 RMK A01 T02370206  RH  083%=      5-min Rain = 0
KTH1 151245Z 17006KT 24/21 A2981 RMK A01 T02370206  RH  083%=      5-min Rain = 0
KTH1 151246Z 17009KT 24/21 A2981 RMK A01 T02370207  RH  083%=      5-min Rain = 0
KTH1 151247Z 17008KT 24/21 A2981 RMK A01 T02370206  RH  083%=      5-min Rain = 0
KTH1 151248Z 17010KT 24/21 A2981 RMK A01 T02370206  RH  083%=      5-min Rain = 0
KTH1 151249Z 17011KT 24/21 A2981 RMK A01 T02370207  RH  083%=      5-min Rain = 0
KTH1 151250Z 17008KT 24/21 A2981 RMK A01 T02370206  RH  083%=      5-min Rain = 0
KTH1 151251Z 17008KT 24/21 A2981 RMK A01 T02370207  RH  083%=      5-min Rain = 0
KTH1 151252Z 17006KT 24/21 A2981 RMK A01 T02370208  RH  083%=      5-min Rain = 0
KTH1 151253Z 18008G13KT 24/21 A2981 RMK A01 T02380208  RH  083%=      5-min Rain = 0
KTH1 151254Z 18008KT 24/21 A2982 RMK A01 T02380207  RH  083%=      5-min Rain = 0
KTH1 151255Z 17008KT 24/21 A2981 RMK A01 T02390207  RH  083%=      5-min Rain = 0
KTH1 151256Z 17009G14KT 24/21 A2981 RMK A01 T02390208  RH  083%=      5-min Rain = 0
KTH1 151257Z 19009G14KT 24/21 A2982 RMK A01 T02400208  RH  082%=      5-min Rain = 0
KTH1 151258Z 17010KT 24/21 A2981 RMK A01 T02410208  RH  082%=      5-min Rain = 0
KTH1 151259Z 17009KT 24/21 A2981 RMK A01 T02410209  RH  082%=      5-min Rain = 0
KTH1 151300Z 18007KT 24/21 A2981 RMK A01 T02420209  RH  082%=      5-min Rain = 0
KTH1 151301Z 17007KT 24/21 A2982 RMK A01 T02430210  RH  082%=      5-min Rain = 0
KTH1 151302Z 18006KT 24/21 A2982 RMK A01 T02440210  RH  081%=      5-min Rain = 0
KTH1 151303Z 17009G14KT 25/21 A2982 RMK A01 T02450210  RH  081%=      5-min Rain = 0
KTH1 151304Z 18011G16KT 25/21 A2982 RMK A01 T02450210  RH  081%=      5-min Rain = 0
KTH1 151305Z 18006KT 25/21 A2982 RMK A01 T02460211  RH  081%=      5-min Rain = 0
KTH1 151306Z 18010KT 25/21 A2982 RMK A01 T02460211  RH  081%=      5-min Rain = 0
KTH1 151307Z 18008G13KT 25/21 A2982 RMK A01 T02470211  RH  080%=      5-min Rain = 0
KTH1 151308Z 18009KT 25/21 A2982 RMK A01 T02480211  RH  080%=      5-min Rain = 0
KTH1 151309Z 18007KT 25/21 A2982 RMK A01 T02480212  RH  080%=      5-min Rain = 0
KTH1 151310Z 17010KT 25/21 A2982 RMK A01 T02490212  RH  080%=      5-min Rain = 0
KTH1 151311Z 18011KT 25/21 A2982 RMK A01 T02490211  RH  079%=      5-min Rain = 0
KTH1 151312Z 18009KT 25/21 A2982 RMK A01 T02490211  RH  079%=      5-min Rain = 0
KTH1 151313Z 18011G18KT 25/21 A2982 RMK A01 T02490211  RH  079%=      5-min Rain = 0
KTH1 151314Z 17010KT 25/21 A2982 RMK A01 T02490211  RH  079%=      5-min Rain = 0
KTH1 151315Z 18008KT 25/21 A2982 RMK A01 T02490211  RH  079%=      5-min Rain = 0
KTH1 151316Z 18007KT 25/21 A2982 RMK A01 T02500213  RH  080%=      5-min Rain = 0
KTH1 151317Z 18009KT 25/21 A2982 RMK A01 T02510213  RH  079%=      5-min Rain = 0
KTH1 151318Z 18009KT 25/21 A2982 RMK A01 T02510213  RH  079%=      5-min Rain = 0
KTH1 151319Z 18011KT 25/21 A2982 RMK A01 T02510213  RH  079%=      5-min Rain = 0
KTH1 151320Z 17011G16KT 25/21 A2982 RMK A01 T02520213  RH  079%=      5-min Rain = 0
KTH1 151321Z 18010G15KT 25/21 A2982 RMK A01 T02520212  RH  079%=      5-min Rain = 0
KTH1 151322Z 18009G16KT 25/21 A2982 RMK A01 T02520213  RH  079%=      5-min Rain = 0
KTH1 151323Z 18007KT 25/21 A2982 RMK A01 T02520213  RH  079%=      5-min Rain = 0
KTH1 151324Z 18008G13KT 25/21 A2982 RMK A01 T02530214  RH  079%=      5-min Rain = 0
KTH1 151325Z 18011G16KT 25/21 A2982 RMK A01 T02540214  RH  079%=      5-min Rain = 0
KTH1 151326Z 18011KT 25/21 A2981 RMK A01 T02540214  RH  078%=      5-min Rain = 0
KTH1 151327Z 17013G18KT 25/21 A2981 RMK A01 T02540213  RH  078%=      5-min Rain = 0
KTH1 151328Z 18017G23KT 25/21 A2982 RMK A01 T02540213  RH  078%=      5-min Rain = 0
KTH1 151329Z 17013G18KT 25/21 A2981 RMK A01 T02540212  RH  078%=      5-min Rain = 0
KTH1 151330Z 18015KT 25/21 A2982 RMK A01 T02540213  RH  078%=      5-min Rain = 0
KTH1 151331Z 18013G18KT 25/21 A2982 RMK A01 T02530212  RH  078%=      5-min Rain = 0
KTH1 151332Z 19016KT 25/21 A2982 RMK A01 T02530213  RH  078%=      5-min Rain = 0
KTH1 151333Z 18014KT 25/21 A2982 RMK A01 T02540213  RH  078%=      5-min Rain = 0
KTH1 151334Z 18012KT 25/21 A2981 RMK A01 T02540212  RH  078%=      5-min Rain = 0
KTH1 151335Z 18009KT 25/21 A2981 RMK A01 T02540214  RH  078%=      5-min Rain = 0
KTH1 151336Z 18012G17KT 26/21 A2981 RMK A01 T02550214  RH  078%=      5-min Rain = 0
KTH1 151337Z 18014G19KT 26/21 A2981 RMK A01 T02560213  RH  077%=      5-min Rain = 0
KTH1 151338Z 19014G19KT 26/21 A2981 RMK A01 T02560213  RH  077%=      5-min Rain = 0
KTH1 151339Z 17014KT 26/21 A2981 RMK A01 T02560213  RH  077%=      5-min Rain = 0
KTH1 151340Z 17011KT 26/21 A2981 RMK A01 T02550213  RH  078%=      5-min Rain = 0
KTH1 151341Z 18010KT 26/21 A2981 RMK A01 T02550214  RH  078%=      5-min Rain = 0
KTH1 151342Z 18009G14KT 26/22 A2981 RMK A01 T02560215  RH  078%=      5-min Rain = 0
KTH1 151343Z 18014G19KT 26/22 A2981 RMK A01 T02580216  RH  077%=      5-min Rain = 0
KTH1 151344Z 18014G19KT 26/21 A2981 RMK A01 T02580213  RH  076%=      5-min Rain = 0
KTH1 151345Z 18011G19KT 26/21 A2981 RMK A01 T02590214  RH  077%=      5-min Rain = 0
KTH1 151346Z 18012G19KT 26/22 A2981 RMK A01 T02590215  RH  077%=      5-min Rain = 0
KTH1 151347Z 17008G13KT 26/22 A2981 RMK A01 T02590216  RH  077%=      5-min Rain = 0
KTH1 151348Z 17011G16KT 26/22 A2981 RMK A01 T02600216  RH  077%=      5-min Rain = 0
KTH1 151349Z 18011G16KT 26/22 A2982 RMK A01 T02600215  RH  076%=      5-min Rain = 0
KTH1 151350Z 18013G21KT 26/22 A2982 RMK A01 T02600215  RH  076%=      5-min Rain = 0
KTH1 151351Z 18017G23KT 26/22 A2982 RMK A01 T02600215  RH  076%=      5-min Rain = 0
KTH1 151352Z 18011G17KT 26/21 A2982 RMK A01 T02600213  RH  076%=      5-min Rain = 0
KTH1 151353Z 19008KT 26/22 A2982 RMK A01 T02590215  RH  076%=      5-min Rain = 0
KTH1 151354Z 18012KT 26/22 A2982 RMK A01 T02590215  RH  077%=      5-min Rain = 0
KTH1 151355Z 17012KT 26/22 A2982 RMK A01 T02600215  RH  076%=      5-min Rain = 0
KTH1 151356Z 19011KT 26/22 A2982 RMK A01 T02600215  RH  076%=      5-min Rain = 0
KTH1 151357Z 19014KT 26/22 A2982 RMK A01 T02600215  RH  076%=      5-min Rain = 0
KTH1 151358Z 19012G19KT 26/22 A2982 RMK A01 T02610215  RH  076%=      5-min Rain = 0
KTH1 151359Z 19009G15KT 26/22 A2982 RMK A01 T02620217  RH  076%=      5-min Rain = 0
KTH1 151400Z 18011KT 26/22 A2982 RMK A01 T02630216  RH  075%=      5-min Rain = 0
KTH1 151401Z 18015G21KT 26/22 A2982 RMK A01 T02630216  RH  075%=      5-min Rain = 0
KTH1 151402Z 18014G20KT 26/22 A2981 RMK A01 T02630215  RH  075%=      5-min Rain = 0
KTH1 151403Z 19015G21KT 26/21 A2981 RMK A01 T02630214  RH  075%=      5-min Rain = 0
KTH1 151404Z 18012KT 26/21 A2982 RMK A01 T02630214  RH  075%=      5-min Rain = 0
KTH1 151405Z 19010KT 26/22 A2982 RMK A01 T02620215  RH  075%=      5-min Rain = 0
KTH1 151406Z 19013G18KT 26/22 A2981 RMK A01 T02620215  RH  075%=      5-min Rain = 0
KTH1 151407Z 19009KT 26/22 A2981 RMK A01 T02620215  RH  075%=      5-min Rain = 0
KTH1 151408Z 18011KT 26/22 A2981 RMK A01 T02630216  RH  076%=      5-min Rain = 0
KTH1 151409Z 17009G15KT 26/22 A2981 RMK A01 T02630216  RH  075%=      5-min Rain = 0
KTH1 151410Z 18012KT 26/22 A2981 RMK A01 T02640217  RH  075%=      5-min Rain = 0
KTH1 151411Z 17014KT 27/22 A2981 RMK A01 T02650215  RH  074%=      5-min Rain = 0
KTH1 151412Z 19011KT 27/22 A2981 RMK A01 T02650216  RH  074%=      5-min Rain = 0
KTH1 151413Z 18012KT 27/22 A2981 RMK A01 T02660216  RH  074%=      5-min Rain = 0
KTH1 151414Z 18011KT 27/22 A2981 RMK A01 T02660216  RH  074%=      5-min Rain = 0
KTH1 151415Z 18009G14KT 27/22 A2981 RMK A01 T02660217  RH  075%=      5-min Rain = 0
KTH1 151416Z 17013KT 27/22 A2981 RMK A01 T02670217  RH  074%=      5-min Rain = 0
KTH1 151417Z 18012KT 27/22 A2981 RMK A01 T02670216  RH  074%=      5-min Rain = 0
KTH1 151418Z 17014KT 27/22 A2981 RMK A01 T02670216  RH  074%=      5-min Rain = 0
KTH1 151419Z 18014G22KT 27/22 A2981 RMK A01 T02670215  RH  073%=      5-min Rain = 0
KTH1 151420Z 17012G18KT 27/22 A2981 RMK A01 T02670216  RH  074%=      5-min Rain = 0
KTH1 151421Z 19014G19KT 27/22 A2981 RMK A01 T02680217  RH  074%=      5-min Rain = 0
KTH1 151422Z 18015G22KT 27/22 A2981 RMK A01 T02690216  RH  073%=      5-min Rain = 0
KTH1 151423Z 18014KT 27/22 A2981 RMK A01 T02680215  RH  072%=      5-min Rain = 0
KTH1 151424Z 19008G14KT 27/22 A2981 RMK A01 T02690217  RH  073%=      5-min Rain = 0
KTH1 151425Z 18014G22KT 27/22 A2981 RMK A01 T02690218  RH  073%=      5-min Rain = 0
KTH1 151426Z 18013G21KT 27/22 A2981 RMK A01 T02700215  RH  072%=      5-min Rain = 0
KTH1 151427Z 18016KT 27/22 A2981 RMK A01 T02700216  RH  072%=      5-min Rain = 0
KTH1 151428Z 19015KT 27/21 A2981 RMK A01 T02700214  RH  072%=      5-min Rain = 0
KTH1 151429Z 19011G16KT 27/22 A2981 RMK A01 T02690215  RH  072%=      5-min Rain = 0
KTH1 151430Z 19013KT 27/22 A2981 RMK A01 T02700216  RH  072%=      5-min Rain = 0
KTH1 151431Z 19011KT 27/22 A2981 RMK A01 T02700216  RH  072%=      5-min Rain = 0
KTH1 151432Z 18011G17KT 27/22 A2981 RMK A01 T02710217  RH  072%=      5-min Rain = 0
KTH1 151433Z 18011G16KT 27/22 A2981 RMK A01 T02720216  RH  071%=      5-min Rain = 0
KTH1 151434Z 18011G18KT 27/22 A298 RMK A01 T02720216  RH  071%=      5-min Rain = 0
KTH1 151435Z 19014G21KT 27/22 A2981 RMK A01 T02730216  RH  071%=      5-min Rain = 0
KTH1 151436Z 18013G20KT 27/21 A298 RMK A01 T02730214  RH  070%=      5-min Rain = 0
KTH1 151437Z 19013G21KT 27/22 A298 RMK A01 T02730216  RH  071%=      5-min Rain = 0
KTH1 151438Z 19013G23KT 27/22 A298 RMK A01 T02730215  RH  071%=      5-min Rain = 0
KTH1 151439Z 19011KT 27/22 A298 RMK A01 T02720216  RH  071%=      5-min Rain = 0
KTH1 151440Z 18009KT 27/22 A298 RMK A01 T02710216  RH  072%=      5-min Rain = 0
KTH1 151441Z 18010G19KT 27/22 A298 RMK A01 T02720218  RH  072%=      5-min Rain = 0
KTH1 151442Z 18017KT 27/22 A298 RMK A01 T02720215  RH  071%=      5-min Rain = 0
KTH1 151443Z 18012G17KT 27/22 A298 RMK A01 T02720215  RH  071%=      5-min Rain = 0
KTH1 151444Z 19011G16KT 27/22 A298 RMK A01 T02720216  RH  071%=      5-min Rain = 0
KTH1 151445Z 19014G22KT 27/22 A298 RMK A01 T02730216  RH  071%=      5-min Rain = 0
KTH1 151446Z 18016KT 27/21 A298 RMK A01 T02730214  RH  070%=      5-min Rain = 0
KTH1 151447Z 18015KT 27/21 A298 RMK A01 T02730213  RH  070%=      5-min Rain = 0
KTH1 151448Z 18013G21KT 27/21 A298 RMK A01 T02730214  RH  070%=      5-min Rain = 0
KTH1 151449Z 18016G25KT 27/21 A298 RMK A01 T02720212  RH  070%=      5-min Rain = 0
KTH1 151450Z 19014KT 27/21 A298 RMK A01 T02720211  RH  070%=      5-min Rain = 0
KTH1 151451Z 19013G18KT 27/21 A298 RMK A01 T02710212  RH  070%=      5-min Rain = 0
KTH1 151452Z 19012G17KT 27/21 A298 RMK A01 T02710212  RH  070%=      5-min Rain = 0
KTH1 151453Z 18012KT 27/21 A298 RMK A01 T02700213  RH  071%=      5-min Rain = 0
KTH1 151454Z 19011G16KT 27/21 A298 RMK A01 T02710213  RH  071%=      5-min Rain = 0
KTH1 151455Z 19011KT 27/21 A298 RMK A01 T02710213  RH  071%=      5-min Rain = 0
KTH1 151456Z 18014KT 27/21 A298 RMK A01 T02710213  RH  071%=      5-min Rain = 0
KTH1 151457Z 18010G16KT 27/21 A298 RMK A01 T02710210  RH  069%=      5-min Rain = 0
KTH1 151458Z 20011G17KT 27/21 A298 RMK A01 T02720213  RH  070%=      5-min Rain = 0
KTH1 151459Z 20011G17KT 27/21 A298 RMK A01 T02730213  RH  070%=      5-min Rain = 0
KTH1 151500Z 19009KT 27/22 A298 RMK A01 T02730215  RH  070%=      5-min Rain = 0
KTH1 151501Z 19012G17KT 27/21 A298 RMK A01 T02740214  RH  070%=      5-min Rain = 0
KTH1 151502Z 18012G19KT 27/21 A298 RMK A01 T02740214  RH  070%=      5-min Rain = 0
KTH1 151503Z 18012KT 27/21 A298 RMK A01 T02740213  RH  069%=      5-min Rain = 0
KTH1 151504Z 19011G16KT 28/21 A298 RMK A01 T02760213  RH  069%=      5-min Rain = 0
KTH1 151505Z 19013G19KT 28/21 A298 RMK A01 T02770214  RH  068%=      5-min Rain = 0
KTH1 151506Z 18010KT 28/22 A298 RMK A01 T02780215  RH  069%=      5-min Rain = 0
KTH1 151507Z 18015KT 28/22 A298 RMK A01 T02800215  RH  068%=      5-min Rain = 0
KTH1 151508Z 18014G19KT 28/21 A298 RMK A01 T02820214  RH  066%=      5-min Rain = 0
KTH1 151509Z 19008G14KT 28/22 A298 RMK A01 T02840216  RH  067%=      5-min Rain = 0
KTH1 151510Z 20015G21KT 29/22 A298 RMK A01 T02860218  RH  067%=      5-min Rain = 0
KTH1 151511Z 19015KT 29/21 A298 RMK A01 T02860214  RH  065%=      5-min Rain = 0
KTH1 151512Z 19016G22KT 28/21 A298 RMK A01 T02830213  RH  065%=      5-min Rain = 0
KTH1 151513Z 19013G23KT 28/21 A298 RMK A01 T02820212  RH  066%=      5-min Rain = 0
KTH1 151514Z 19011G18KT 28/21 A298 RMK A01 T02820214  RH  066%=      5-min Rain = 0
KTH1 151515Z 19012KT 29/22 A298 RMK A01 T02850215  RH  066%=      5-min Rain = 0
KTH1 151516Z 20009G14KT 29/22 A298 RMK A01 T02870215  RH  065%=      5-min Rain = 0
KTH1 151517Z 19012KT 29/22 A298 RMK A01 T02880215  RH  065%=      5-min Rain = 0
KTH1 151518Z 18014G22KT 29/21 A298 RMK A01 T02890213  RH  064%=      5-min Rain = 0
KTH1 151519Z 19011KT 29/22 A298 RMK A01 T02890217  RH  065%=      5-min Rain = 0
KTH1 151520Z 20010G17KT 29/22 A298 RMK A01 T02900217  RH  065%=      5-min Rain = 0
KTH1 151521Z 19015G21KT 29/22 A298 RMK A01 T02910215  RH  064%=      5-min Rain = 0
KTH1 151522Z 19014G21KT 29/21 A298 RMK A01 T02900214  RH  063%=      5-min Rain = 0
KTH1 151523Z 19013G21KT 29/21 A298 RMK A01 T02900213  RH  063%=      5-min Rain = 0
KTH1 151524Z 18014G20KT 29/22 A298 RMK A01 T02900215  RH  064%=      5-min Rain = 0
KTH1 151525Z 19016G22KT 29/21 A298 RMK A01 T02900214  RH  063%=      5-min Rain = 0
KTH1 151526Z 19015G20KT 29/21 A298 RMK A01 T02910213  RH  063%=      5-min Rain = 0
KTH1 151527Z 18010KT 29/22 A298 RMK A01 T02900215  RH  064%=      5-min Rain = 0
KTH1 151528Z 18011G16KT 29/22 A298 RMK A01 T02900217  RH  065%=      5-min Rain = 0
KTH1 151529Z 18013G18KT 29/22 A298 RMK A01 T02920217  RH  064%=      5-min Rain = 0
KTH1 151530Z 17013G18KT 29/22 A298 RMK A01 T02930215  RH  063%=      5-min Rain = 0
KTH1 151531Z 18014G21KT 29/22 A298 RMK A01 T02930215  RH  063%=      5-min Rain = 0
KTH1 151532Z 18012G17KT 29/21 A298 RMK A01 T02920214  RH  063%=      5-min Rain = 0
KTH1 151533Z 18014G20KT 29/21 A298 RMK A01 T02920214  RH  063%=      5-min Rain = 0
KTH1 151534Z 18015G21KT 29/21 A298 RMK A01 T02920213  RH  062%=      5-min Rain = 0
KTH1 151535Z 19015KT 29/21 A298 RMK A01 T02920210  RH  061%=      5-min Rain = 0
KTH1 151536Z 20012G17KT 29/21 A298 RMK A01 T02920212  RH  062%=      5-min Rain = 0
KTH1 151537Z 20009KT 29/22 A298 RMK A01 T02920215  RH  063%=      5-min Rain = 0
KTH1 151538Z 18010G15KT 29/22 A298 RMK A01 T02930215  RH  063%=      5-min Rain = 0
KTH1 151539Z 18014G20KT 29/21 A298 RMK A01 T02930214  RH  062%=      5-min Rain = 0
KTH1 151540Z 17015G20KT 29/21 A2979 RMK A01 T02940214  RH  062%=      5-min Rain = 0
KTH1 151541Z 17014G19KT 29/21 A298 RMK A01 T02940213  RH  062%=      5-min Rain = 0
KTH1 151542Z 18012KT 29/21 A298 RMK A01 T02940214  RH  062%=      5-min Rain = 0
KTH1 151543Z 17011G16KT 29/22 A2979 RMK A01 T02940216  RH  063%=      5-min Rain = 0
KTH1 151544Z 18013G18KT 30/22 A298 RMK A01 T02960215  RH  062%=      5-min Rain = 0
KTH1 151545Z 18008G13KT 30/22 A298 RMK A01 T02960216  RH  062%=      5-min Rain = 0
KTH1 151546Z 18010KT 30/22 A2979 RMK A01 T02970218  RH  063%=      5-min Rain = 0
KTH1 151547Z 19014G21KT 30/22 A2979 RMK A01 T02980217  RH  062%=      5-min Rain = 0
KTH1 151548Z 18013G18KT 30/22 A2979 RMK A01 T02980215  RH  061%=      5-min Rain = 0
KTH1 151549Z 18011G16KT 30/22 A2979 RMK A01 T02980217  RH  062%=      5-min Rain = 0
KTH1 151550Z 19015KT 30/22 A2979 RMK A01 T02980216  RH  061%=      5-min Rain = 0
KTH1 151551Z 18014G20KT 30/22 A2979 RMK A01 T02980215  RH  061%=      5-min Rain = 0
KTH1 151552Z 19012G17KT 30/22 A2979 RMK A01 T02970215  RH  061%=      5-min Rain = 0
KTH1 151553Z 20013G18KT 30/22 A2979 RMK A01 T02970216  RH  062%=      5-min Rain = 0
KTH1 151554Z 20011KT 30/22 A2979 RMK A01 T02970215  RH  062%=      5-min Rain = 0
KTH1 151555Z 17013G20KT 30/22 A298 RMK A01 T02970216  RH  062%=      5-min Rain = 0
KTH1 151556Z 18016G21KT 30/21 A298 RMK A01 T02980214  RH  061%=      5-min Rain = 0
KTH1 151557Z 19014G20KT 30/21 A2979 RMK A01 T02980214  RH  061%=      5-min Rain = 0
KTH1 151558Z 19014KT 30/21 A2979 RMK A01 T02980214  RH  061%=      5-min Rain = 0
KTH1 151559Z 19015G22KT 30/21 A298 RMK A01 T02980214  RH  061%=      5-min Rain = 0
KTH1 151600Z 18016KT 30/21 A2979 RMK A01 T02980213  RH  060%=      5-min Rain = 0
KTH1 151601Z 18015KT 30/21 A298 RMK A01 T02970211  RH  060%=      5-min Rain = 0
KTH1 151602Z 18016G21KT 30/21 A298 RMK A01 T02970212  RH  060%=      5-min Rain = 0
KTH1 151603Z 18017KT 30/21 A2979 RMK A01 T02970211  RH  060%=      5-min Rain = 0
KTH1 151604Z 18015KT 30/21 A298 RMK A01 T02970212  RH  060%=      5-min Rain = 0
KTH1 151605Z 18015KT 30/21 A2979 RMK A01 T02970212  RH  060%=      5-min Rain = 0
KTH1 151606Z 18009G16KT 30/21 A298 RMK A01 T02970213  RH  061%=      5-min Rain = 0
KTH1 151607Z 18012G19KT 30/21 A2979 RMK A01 T02970214  RH  061%=      5-min Rain = 0
KTH1 151608Z 19012KT 30/22 A2979 RMK A01 T02980215  RH  061%=      5-min Rain = 0
KTH1 151609Z 19013G19KT 30/22 A2979 RMK A01 T02990215  RH  061%=      5-min Rain = 0
KTH1 151610Z 18016G21KT 30/22 A2979 RMK A01 T03000216  RH  061%=      5-min Rain = 0
KTH1 151611Z 18013KT 30/22 A2979 RMK A01 T03000215  RH  060%=      5-min Rain = 0
KTH1 151612Z 19016G23KT 30/22 A2979 RMK A01 T03000215  RH  060%=      5-min Rain = 0
KTH1 151613Z 18014KT 30/21 A2979 RMK A01 T03000214  RH  060%=      5-min Rain = 0
KTH1 151614Z 18014KT 30/21 A2979 RMK A01 T03000214  RH  060%=      5-min Rain = 0
KTH1 151615Z 17015G22KT 30/22 A2979 RMK A01 T03000215  RH  061%=      5-min Rain = 0
KTH1 151616Z 17014G20KT 30/21 A2979 RMK A01 T03000213  RH  060%=      5-min Rain = 0
KTH1 151617Z 19013G19KT 30/22 A2979 RMK A01 T03000215  RH  060%=      5-min Rain = 0
KTH1 151618Z 18015G22KT 30/21 A2979 RMK A01 T03000214  RH  060%=      5-min Rain = 0
KTH1 151619Z 18011G16KT 30/22 A2979 RMK A01 T03010215  RH  060%=      5-min Rain = 0
KTH1 151620Z 19011G16KT 30/22 A2979 RMK A01 T03020218  RH  061%=      5-min Rain = 0
KTH1 151621Z 18013G19KT 30/22 A2979 RMK A01 T03040216  RH  059%=      5-min Rain = 0
KTH1 151622Z 18011G19KT 31/22 A2979 RMK A01 T03050218  RH  060%=      5-min Rain = 0
KTH1 151623Z 18015G21KT 30/22 A298 RMK A01 T03040216  RH  059%=      5-min Rain = 0
KTH1 151624Z 17013KT 30/21 A298 RMK A01 T03030214  RH  059%=      5-min Rain = 0
KTH1 151625Z 17013G18KT 30/22 A298 RMK A01 T03020216  RH  060%=      5-min Rain = 0
KTH1 151626Z 17010KT 30/22 A298 RMK A01 T03020218  RH  061%=      5-min Rain = 0
KTH1 151627Z 18011G17KT 30/22 A298 RMK A01 T03030219  RH  061%=      5-min Rain = 0
KTH1 151628Z 18013KT 30/22 A298 RMK A01 T03040217  RH  059%=      5-min Rain = 0
KTH1 151629Z 18015G20KT 31/22 A2979 RMK A01 T03050216  RH  059%=      5-min Rain = 0
KTH1 151630Z 18014G21KT 30/22 A298 RMK A01 T03040217  RH  060%=      5-min Rain = 0
KTH1 151631Z 18015G21KT 30/22 A298 RMK A01 T03040216  RH  059%=      5-min Rain = 0
KTH1 151632Z 18015G21KT 30/22 A2979 RMK A01 T03040217  RH  060%=      5-min Rain = 0
KTH1 151633Z 17015G20KT 30/21 A2979 RMK A01 T03040214  RH  059%=      5-min Rain = 0
KTH1 151634Z 17015G20KT 30/22 A2979 RMK A01 T03030215  RH  059%=      5-min Rain = 0
KTH1 151635Z 18015G20KT 30/22 A2979 RMK A01 T03030215  RH  059%=      5-min Rain = 0
KTH1 151636Z 17009KT 30/22 A2979 RMK A01 T03030216  RH  060%=      5-min Rain = 0
KTH1 151637Z 18008KT 30/22 A2979 RMK A01 T03040220  RH  061%=      5-min Rain = 0
KTH1 151638Z 18009KT 31/22 A2979 RMK A01 T03070223  RH  061%=      5-min Rain = 0
KTH1 151639Z 18013KT 31/22 A2979 RMK A01 T03090220  RH  059%=      5-min Rain = 0
KTH1 151640Z 18016G22KT 31/22 A2979 RMK A01 T03100218  RH  058%=      5-min Rain = 0
KTH1 151641Z 18012G18KT 31/22 A2979 RMK A01 T03090218  RH  059%=      5-min Rain = 0
KTH1 151642Z 19014G20KT 31/22 A2979 RMK A01 T03080219  RH  059%=      5-min Rain = 0
KTH1 151643Z 17013KT 31/22 A2979 RMK A01 T03080218  RH  059%=      5-min Rain = 0
KTH1 151644Z 18009G17KT 31/22 A2979 RMK A01 T03080219  RH  059%=      5-min Rain = 0
KTH1 151645Z 19010G16KT 31/22 A2979 RMK A01 T03080223  RH  060%=      5-min Rain = 0
KTH1 151646Z 18013KT 31/22 A2979 RMK A01 T03100220  RH  059%=      5-min Rain = 0
KTH1 151647Z 19012G17KT 31/22 A2979 RMK A01 T03110220  RH  058%=      5-min Rain = 0
KTH1 151648Z 18011G16KT 31/22 A2979 RMK A01 T03110220  RH  059%=      5-min Rain = 0
KTH1 151649Z 18012KT 31/22 A2979 RMK A01 T03110221  RH  059%=      5-min Rain = 0
KTH1 151650Z 18010KT 31/22 A2979 RMK A01 T03110221  RH  059%=      5-min Rain = 0
KTH1 151651Z 18016G22KT 31/22 A2979 RMK A01 T03110218  RH  058%=      5-min Rain = 0
KTH1 151652Z 17014G20KT 31/22 A2979 RMK A01 T03100219  RH  058%=      5-min Rain = 0
KTH1 151653Z 17012KT 31/22 A2979 RMK A01 T03090218  RH  059%=      5-min Rain = 0
KTH1 151654Z 17011KT 31/22 A2979 RMK A01 T03090220  RH  059%=      5-min Rain = 0
KTH1 151655Z 18012G18KT 31/22 A2979 RMK A01 T03090219  RH  059%=      5-min Rain = 0
KTH1 151656Z 18016KT 31/22 A2979 RMK A01 T03090220  RH  059%=      5-min Rain = 0
KTH1 151657Z 18014KT 31/22 A2979 RMK A01 T03090217  RH  058%=      5-min Rain = 0
KTH1 151658Z 18010KT 31/22 A2979 RMK A01 T03090219  RH  059%=      5-min Rain = 0
KTH1 151659Z 19012G19KT 31/22 A2979 RMK A01 T03100221  RH  059%=      5-min Rain = 0
KTH1 151700Z 18014KT 31/22 A2979 RMK A01 T03110220  RH  058%=      5-min Rain = 0
KTH1 151701Z 18013KT 31/22 A2979 RMK A01 T03120219  RH  058%=      5-min Rain = 0
KTH1 151702Z 18012G18KT 31/22 A2979 RMK A01 T03120221  RH  058%=      5-min Rain = 0
KTH1 151703Z 18011G16KT 31/22 A2979 RMK A01 T03110221  RH  059%=      5-min Rain = 0
KTH1 151704Z 17011G16KT 31/22 A2979 RMK A01 T03130222  RH  059%=      5-min Rain = 0
KTH1 151705Z 17015G20KT 31/22 A2979 RMK A01 T03140217  RH  056%=      5-min Rain = 0
KTH1 151706Z 18011G19KT 31/22 A2979 RMK A01 T03140217  RH  057%=      5-min Rain = 0
KTH1 151707Z 17012G18KT 31/22 A2979 RMK A01 T03130219  RH  057%=      5-min Rain = 0
KTH1 151708Z 18010KT 31/22 A2979 RMK A01 T03130216  RH  056%=      5-min Rain = 0
KTH1 151709Z 18012G17KT 31/22 A2979 RMK A01 T03140220  RH  058%=      5-min Rain = 0
KTH1 151710Z 19010G15KT 32/22 A2979 RMK A01 T03150222  RH  058%=      5-min Rain = 0
KTH1 151711Z 19013G18KT 32/22 A2979 RMK A01 T03180217  RH  055%=      5-min Rain = 0
KTH1 151712Z 18012G18KT 32/21 A2979 RMK A01 T03180212  RH  053%=      5-min Rain = 0
KTH1 151713Z 19009KT 32/21 A2979 RMK A01 T03160211  RH  054%=      5-min Rain = 0
KTH1 151714Z 18013KT 32/21 A2979 RMK A01 T03150213  RH  055%=      5-min Rain = 0
KTH1 151715Z 18014KT 32/21 A2979 RMK A01 T03150213  RH  055%=      5-min Rain = 0
KTH1 151716Z 19013G21KT 31/22 A2979 RMK A01 T03140215  RH  056%=      5-min Rain = 0
KTH1 151717Z 19013KT 31/21 A2979 RMK A01 T03140213  RH  055%=      5-min Rain = 0
KTH1 151718Z 18008G14KT 31/22 A2979 RMK A01 T03140217  RH  056%=      5-min Rain = 0
KTH1 151719Z 18012G17KT 32/22 A2979 RMK A01 T03160216  RH  056%=      5-min Rain = 0
KTH1 151720Z 20011G16KT 32/21 A2979 RMK A01 T03160214  RH  055%=      5-min Rain = 0
KTH1 151721Z 18013KT 32/22 A2979 RMK A01 T03160215  RH  055%=      5-min Rain = 0
KTH1 151722Z 18013G19KT 32/21 A2979 RMK A01 T03160214  RH  054%=      5-min Rain = 0
KTH1 151723Z 19010G18KT 32/21 A2979 RMK A01 T03160212  RH  054%=      5-min Rain = 0
KTH1 151724Z 18011G17KT 32/22 A2979 RMK A01 T03150215  RH  055%=      5-min Rain = 0
KTH1 151725Z 19011G17KT 32/22 A2979 RMK A01 T03160218  RH  056%=      5-min Rain = 0
KTH1 151726Z 18014G19KT 32/22 A2979 RMK A01 T03180215  RH  054%=      5-min Rain = 0
KTH1 151727Z 18010G15KT 32/22 A2979 RMK A01 T03180217  RH  055%=      5-min Rain = 0
KTH1 151728Z 18009G15KT 32/22 A2979 RMK A01 T03180218  RH  055%=      5-min Rain = 0
KTH1 151729Z 19012G17KT 32/22 A2979 RMK A01 T03190220  RH  056%=      5-min Rain = 0
KTH1 151730Z 19011KT 32/22 A2979 RMK A01 T03200215  RH  054%=      5-min Rain = 0
KTH1 151731Z 18012KT 32/22 A2979 RMK A01 T03200216  RH  054%=      5-min Rain = 0
KTH1 151732Z 18013G18KT 32/22 A2979 RMK A01 T03190217  RH  055%=      5-min Rain = 0
KTH1 151733Z 18012G17KT 32/22 A2979 RMK A01 T03180216  RH  055%=      5-min Rain = 0
KTH1 151734Z 19013KT 32/22 A2979 RMK A01 T03170216  RH  055%=      5-min Rain = 0
KTH1 151735Z 18012G18KT 32/22 A2979 RMK A01 T03180218  RH  056%=      5-min Rain = 0
KTH1 151736Z 18011G16KT 32/22 A2979 RMK A01 T03180215  RH  055%=      5-min Rain = 0
KTH1 151737Z 18011G18KT 32/22 A2979 RMK A01 T03180216  RH  055%=      5-min Rain = 0
KTH1 151738Z 18013KT 32/22 A2979 RMK A01 T03180218  RH  056%=      5-min Rain = 0
KTH1 151739Z 17013G19KT 32/22 A2979 RMK A01 T03180217  RH  055%=      5-min Rain = 0
KTH1 151740Z 17013G18KT 32/22 A2979 RMK A01 T03180215  RH  054%=      5-min Rain = 0
KTH1 151741Z 19009G14KT 32/22 A2979 RMK A01 T03180218  RH  056%=      5-min Rain = 0
KTH1 151742Z 19014G19KT 32/22 A2979 RMK A01 T03180216  RH  055%=      5-min Rain = 0
KTH1 151743Z 19014KT 32/21 A2979 RMK A01 T03180214  RH  054%=      5-min Rain = 0
KTH1 151744Z 17013KT 32/22 A2979 RMK A01 T03170215  RH  055%=      5-min Rain = 0
KTH1 151745Z 17006KT 32/22 A2979 RMK A01 T03170217  RH  055%=      5-min Rain = 0
KTH1 151746Z 19008KT 32/22 A2979 RMK A01 T03170219  RH  056%=      5-min Rain = 0
KTH1 151747Z 17009KT 32/22 A2979 RMK A01 T03190218  RH  055%=      5-min Rain = 0
KTH1 151748Z 16010G15KT 32/22 A2979 RMK A01 T03200220  RH  056%=      5-min Rain = 0
KTH1 151749Z 16009KT 32/22 A2979 RMK A01 T03200219  RH  055%=      5-min Rain = 0
KTH1 151750Z 16014G19KT 32/22 A2979 RMK A01 T03200220  RH  056%=      5-min Rain = 0
KTH1 151751Z 16015KT 32/22 A2979 RMK A01 T03190218  RH  055%=      5-min Rain = 0
KTH1 151752Z 17009KT 32/22 A2979 RMK A01 T03170218  RH  056%=      5-min Rain = 0
KTH1 151753Z 17011G19KT 32/22 A2979 RMK A01 T03170222  RH  057%=      5-min Rain = 0
KTH1 151754Z 18015KT 32/22 A2979 RMK A01 T03180217  RH  055%=      5-min Rain = 0
KTH1 151755Z 19013G19KT 32/22 A2979 RMK A01 T03180217  RH  055%=      5-min Rain = 0
KTH1 151756Z 19012KT 32/22 A2979 RMK A01 T03170218  RH  056%=      5-min Rain = 0
KTH1 151757Z 17011G16KT 32/22 A2979 RMK A01 T03160219  RH  056%=      5-min Rain = 0
KTH1 151758Z 17011G16KT 32/22 A2979 RMK A01 T03170218  RH  056%=      5-min Rain = 0
KTH1 151759Z 16010G16KT 32/22 A2979 RMK A01 T03170218  RH  056%=      5-min Rain = 0
KTH1 151800Z 15010G15KT 32/22 A2979 RMK A01 T03160221  RH  057%=      5-min Rain = 0
KTH1 151801Z 17011KT 32/22 A2979 RMK A01 T03180220  RH  056%=      5-min Rain = 0
KTH1 151802Z 16009KT 32/22 A2979 RMK A01 T03180220  RH  056%=      5-min Rain = 0
KTH1 151803Z 17010KT 32/22 A2979 RMK A01 T03200224  RH  057%=      5-min Rain = 0
KTH1 151804Z 16010G15KT 32/22 A2979 RMK A01 T03210224  RH  057%=      5-min Rain = 0
KTH1 151805Z 16010G16KT 32/23 A2979 RMK A01 T03220225  RH  056%=      5-min Rain = 0
KTH1 151806Z 16011G17KT 32/23 A2979 RMK A01 T03230225  RH  056%=      5-min Rain = 0
KTH1 151807Z 17012G18KT 32/22 A2979 RMK A01 T03240222  RH  055%=      5-min Rain = 0
KTH1 151808Z 18013G19KT 32/22 A2979 RMK A01 T03230222  RH  055%=      5-min Rain = 0
KTH1 151809Z 17012KT 32/22 A2979 RMK A01 T03210220  RH  055%=      5-min Rain = 0
KTH1 151810Z 17012G19KT 32/22 A2979 RMK A01 T03200221  RH  056%=      5-min Rain = 0
KTH1 151811Z 17012G19KT 32/22 A2979 RMK A01 T03200218  RH  055%=      5-min Rain = 0
KTH1 151812Z 18009G17KT 32/22 A2979 RMK A01 T03190222  RH  056%=      5-min Rain = 0
KTH1 151813Z 16013KT 32/22 A2979 RMK A01 T03200219  RH  055%=      5-min Rain = 0
KTH1 151814Z 15012KT 32/22 A2979 RMK A01 T03200220  RH  056%=      5-min Rain = 0
KTH1 151815Z 17010KT 32/22 A2979 RMK A01 T03200221  RH  056%=      5-min Rain = 0
KTH1 151816Z 18010KT 32/22 A2979 RMK A01 T03200221  RH  056%=      5-min Rain = 0
KTH1 151817Z 20009KT 32/22 A2979 RMK A01 T03210221  RH  055%=      5-min Rain = 0
KTH1 151818Z 17009G16KT 32/23 A2979 RMK A01 T03230229  RH  058%=      5-min Rain = 0
KTH1 151819Z 18014G19KT 33/22 A2979 RMK A01 T03250223  RH  055%=      5-min Rain = 0
KTH1 151820Z 19012KT 33/22 A2979 RMK A01 T03250221  RH  054%=      5-min Rain = 0
KTH1 151821Z 18010G15KT 33/22 A2979 RMK A01 T03250223  RH  055%=      5-min Rain = 0
KTH1 151822Z 18011KT 33/22 A2979 RMK A01 T03250222  RH  055%=      5-min Rain = 0
KTH1 151823Z 17011KT 33/22 A2979 RMK A01 T03250221  RH  054%=      5-min Rain = 0
KTH1 151824Z 18009G14KT 32/22 A2978 RMK A01 T03240220  RH  054%=      5-min Rain = 0
KTH1 151825Z 18007KT 32/22 A2978 RMK A01 T03240222  RH  055%=      5-min Rain = 0
KTH1 151826Z 16011G17KT 33/23 A2978 RMK A01 T03250225  RH  056%=      5-min Rain = 0
KTH1 151827Z 16015KT 33/22 A2978 RMK A01 T03260220  RH  054%=      5-min Rain = 0
KTH1 151828Z 17013KT 33/22 A2978 RMK A01 T03250220  RH  054%=      5-min Rain = 0
KTH1 151829Z 17009G16KT 32/22 A2978 RMK A01 T03240222  RH  055%=      5-min Rain = 0
KTH1 151830Z 17010G15KT 32/23 A2978 RMK A01 T03240226  RH  056%=      5-min Rain = 0
KTH1 151831Z 19009KT 33/22 A2978 RMK A01 T03260224  RH  055%=      5-min Rain = 0
KTH1 151832Z 17008G13KT 33/23 A2978 RMK A01 T03270226  RH  055%=      5-min Rain = 0
KTH1 151833Z 18011KT 33/23 A2978 RMK A01 T03290225  RH  054%=      5-min Rain = 0
KTH1 151834Z 18011G16KT 33/22 A2978 RMK A01 T03290224  RH  054%=      5-min Rain = 0
KTH1 151835Z 15013G18KT 33/22 A2978 RMK A01 T03280222  RH  054%=      5-min Rain = 0
KTH1 151836Z 15012G17KT 33/23 A2978 RMK A01 T03260225  RH  055%=      5-min Rain = 0
KTH1 151837Z 16011G16KT 33/22 A2978 RMK A01 T03250223  RH  055%=      5-min Rain = 0
KTH1 151838Z 17006KT 33/23 A2978 RMK A01 T03250228  RH  056%=      5-min Rain = 0
KTH1 151839Z 17012KT 33/23 A2978 RMK A01 T03270227  RH  056%=      5-min Rain = 0
KTH1 151840Z 16013KT 33/22 A2978 RMK A01 T03270223  RH  054%=      5-min Rain = 0
KTH1 151841Z 15010KT 33/22 A2978 RMK A01 T03250224  RH  055%=      5-min Rain = 0
KTH1 151842Z 16012G18KT 33/23 A2978 RMK A01 T03250227  RH  056%=      5-min Rain = 0
KTH1 151843Z 16010G17KT 33/22 A2978 RMK A01 T03260223  RH  055%=      5-min Rain = 0
KTH1 151844Z 18010G16KT 33/23 A2978 RMK A01 T03260227  RH  056%=      5-min Rain = 0
KTH1 151845Z 17010G15KT 33/22 A2978 RMK A01 T03270224  RH  055%=      5-min Rain = 0
KTH1 151846Z 18009KT 33/23 A2978 RMK A01 T03270226  RH  055%=      5-min Rain = 0
KTH1 151847Z 17008G13KT 33/23 A2978 RMK A01 T03270225  RH  055%=      5-min Rain = 0
KTH1 151848Z 17013KT 33/23 A2978 RMK A01 T03270225  RH  055%=      5-min Rain = 0
KTH1 151849Z 17011KT 33/22 A2978 RMK A01 T03270224  RH  055%=      5-min Rain = 0
KTH1 151850Z 16007G12KT 33/23 A2978 RMK A01 T03260228  RH  056%=      5-min Rain = 0
KTH1 151851Z 16008KT 33/23 A2978 RMK A01 T03270228  RH  056%=      5-min Rain = 0
KTH1 151852Z 17009G15KT 33/23 A2978 RMK A01 T03290230  RH  056%=      5-min Rain = 0
KTH1 151853Z 18010G15KT 33/23 A2978 RMK A01 T03310225  RH  054%=      5-min Rain = 0
KTH1 151854Z 17010G15KT 33/22 A2978 RMK A01 T03290222  RH  053%=      5-min Rain = 0
KTH1 151855Z 14009KT 33/23 A2978 RMK A01 T03270226  RH  055%=      5-min Rain = 0
KTH1 151856Z 19008KT 33/23 A2978 RMK A01 T03280229  RH  056%=      5-min Rain = 0
KTH1 151857Z 18013KT 33/23 A2978 RMK A01 T03290227  RH  055%=      5-min Rain = 0
KTH1 151858Z 18012KT 33/22 A2978 RMK A01 T03300224  RH  054%=      5-min Rain = 0
KTH1 151859Z 17008G14KT 33/23 A2978 RMK A01 T03300227  RH  055%=      5-min Rain = 0
KTH1 151900Z 17009G14KT 33/23 A2978 RMK A01 T03300228  RH  055%=      5-min Rain = 0
KTH1 151901Z 16008KT 33/23 A2978 RMK A01 T03300227  RH  055%=      5-min Rain = 0
KTH1 151902Z 18010KT 33/23 A2978 RMK A01 T03310228  RH  055%=      5-min Rain = 0
KTH1 151903Z 17013KT 33/23 A2978 RMK A01 T03310226  RH  054%=      5-min Rain = 0
KTH1 151904Z 17012G17KT 33/23 A2978 RMK A01 T03310226  RH  054%=      5-min Rain = 0
KTH1 151905Z 18011G16KT 33/23 A2978 RMK A01 T03310226  RH  054%=      5-min Rain = 0
KTH1 151906Z 18014G19KT 33/22 A2978 RMK A01 T03310223  RH  053%=      5-min Rain = 0
KTH1 151907Z 19009G14KT 33/22 A2977 RMK A01 T03290223  RH  054%=      5-min Rain = 0
KTH1 151908Z 18009G16KT 33/23 A2977 RMK A01 T03290228  RH  055%=      5-min Rain = 0
KTH1 151909Z 18011G17KT 33/23 A2977 RMK A01 T03300225  RH  054%=      5-min Rain = 0
KTH1 151910Z 18015G21KT 33/23 A2977 RMK A01 T03310226  RH  054%=      5-min Rain = 0
KTH1 151911Z 18011KT 33/23 A2977 RMK A01 T03310225  RH  054%=      5-min Rain = 0
KTH1 151912Z 16010KT 33/23 A2977 RMK A01 T03310227  RH  054%=      5-min Rain = 0
KTH1 151913Z 16010G15KT 33/23 A2977 RMK A01 T03320225  RH  054%=      5-min Rain = 0
KTH1 151914Z 17012G17KT 33/23 A2977 RMK A01 T03320227  RH  054%=      5-min Rain = 0
KTH1 151915Z 18011G17KT 33/23 A2977 RMK A01 T03320227  RH  054%=      5-min Rain = 0
KTH1 151916Z 18010KT 33/23 A2977 RMK A01 T03320225  RH  053%=      5-min Rain = 0
KTH1 151917Z 16009G15KT 33/23 A2977 RMK A01 T03330229  RH  055%=      5-min Rain = 0
KTH1 151918Z 15013G19KT 33/22 A2977 RMK A01 T03330223  RH  052%=      5-min Rain = 0
KTH1 151919Z 16008KT 33/23 A2977 RMK A01 T03320226  RH  054%=      5-min Rain = 0
KTH1 151920Z 15013KT 33/22 A2977 RMK A01 T03310222  RH  053%=      5-min Rain = 0
KTH1 151921Z 17010G15KT 33/23 A2977 RMK A01 T03310225  RH  054%=      5-min Rain = 0
KTH1 151922Z 17009KT 33/23 A2977 RMK A01 T03310226  RH  054%=      5-min Rain = 0
KTH1 151923Z 17011KT 33/23 A2977 RMK A01 T03330228  RH  054%=      5-min Rain = 0
KTH1 151924Z 18012G17KT 33/22 A2977 RMK A01 T03340222  RH  052%=      5-min Rain = 0
KTH1 151925Z 18009KT 33/23 A2977 RMK A01 T03330227  RH  054%=      5-min Rain = 0
KTH1 151926Z 17012G17KT 33/23 A2977 RMK A01 T03340226  RH  053%=      5-min Rain = 0
KTH1 151927Z 18008G13KT 34/23 A2977 RMK A01 T03350226  RH  053%=      5-min Rain = 0
KTH1 151928Z 18010KT 34/23 A2977 RMK A01 T03360227  RH  053%=      5-min Rain = 0
KTH1 151929Z 20010KT 34/23 A2976 RMK A01 T03370226  RH  052%=      5-min Rain = 0
KTH1 151930Z 18012KT 34/22 A2976 RMK A01 T03350223  RH  052%=      5-min Rain = 0
KTH1 151931Z 17011KT 33/22 A2976 RMK A01 T03320224  RH  053%=      5-min Rain = 0
KTH1 151932Z 19009G17KT 33/23 A2977 RMK A01 T03320227  RH  054%=      5-min Rain = 0
KTH1 151933Z 18014KT 33/22 A2976 RMK A01 T03320223  RH  053%=      5-min Rain = 0
KTH1 151934Z 18011G16KT 33/22 A2976 RMK A01 T03320219  RH  052%=      5-min Rain = 0
KTH1 151935Z 19012G21KT 33/22 A2976 RMK A01 T03310224  RH  053%=      5-min Rain = 0
KTH1 151936Z 19016G21KT 33/22 A2977 RMK A01 T03310219  RH  052%=      5-min Rain = 0
KTH1 151937Z 18014G19KT 33/22 A2977 RMK A01 T03280218  RH  052%=      5-min Rain = 0
KTH1 151938Z 18015G20KT 33/22 A2977 RMK A01 T03280220  RH  053%=      5-min Rain = 0
KTH1 151939Z 17011G16KT 33/22 A2976 RMK A01 T03280221  RH  053%=      5-min Rain = 0
KTH1 151940Z 15011KT 33/22 A2976 RMK A01 T03300220  RH  052%=      5-min Rain = 0
KTH1 151941Z 16012KT 33/22 A2976 RMK A01 T03310222  RH  053%=      5-min Rain = 0
KTH1 151942Z 16011G17KT 33/22 A2976 RMK A01 T03320223  RH  053%=      5-min Rain = 0
KTH1 151943Z 16008G14KT 33/22 A2976 RMK A01 T03320224  RH  053%=      5-min Rain = 0
KTH1 151944Z 17008G13KT 33/23 A2976 RMK A01 T03330228  RH  054%=      5-min Rain = 0
KTH1 151945Z 16009G15KT 34/23 A2976 RMK A01 T03360230  RH  054%=      5-min Rain = 0
KTH1 151946Z 17010KT 34/23 A2976 RMK A01 T03390231  RH  053%=      5-min Rain = 0
KTH1 151947Z 17013G18KT 34/23 A2976 RMK A01 T03410226  RH  051%=      5-min Rain = 0
KTH1 151948Z 17012G17KT 34/22 A2976 RMK A01 T03400223  RH  050%=      5-min Rain = 0
KTH1 151949Z 17012KT 34/22 A2976 RMK A01 T03370221  RH  051%=      5-min Rain = 0
KTH1 151950Z 18012KT 34/22 A2976 RMK A01 T03360224  RH  052%=      5-min Rain = 0
KTH1 151951Z 17015KT 34/22 A2976 RMK A01 T03360224  RH  052%=      5-min Rain = 0
KTH1 151952Z 16012KT 34/22 A2976 RMK A01 T03360224  RH  052%=      5-min Rain = 0
KTH1 151953Z 18011G16KT 34/22 A2976 RMK A01 T03360221  RH  051%=      5-min Rain = 0
KTH1 151954Z 18011G16KT 34/22 A2976 RMK A01 T03350222  RH  052%=      5-min Rain = 0
KTH1 151955Z 17014KT 34/22 A2976 RMK A01 T03350223  RH  052%=      5-min Rain = 0
KTH1 151956Z 17013G21KT 34/22 A2976 RMK A01 T03350221  RH  051%=      5-min Rain = 0
KTH1 151957Z 16015KT 33/22 A2976 RMK A01 T03340220  RH  051%=      5-min Rain = 0
KTH1 151958Z 17015KT 33/22 A2976 RMK A01 T03330221  RH  052%=      5-min Rain = 0
KTH1 151959Z 17014G20KT 33/22 A2976 RMK A01 T03330219  RH  052%=      5-min Rain = 0
KTH1 152000Z 17016G24KT 33/22 A2976 RMK A01 T03320219  RH  051%=      5-min Rain = 0
KTH1 152001Z 17013G19KT 33/22 A2976 RMK A01 T03310221  RH  052%=      5-min Rain = 0
KTH1 152002Z 16016G21KT 33/22 A2976 RMK A01 T03320219  RH  052%=      5-min Rain = 0
KTH1 152003Z 18011G16KT 33/22 A2976 RMK A01 T03320221  RH  052%=      5-min Rain = 0
KTH1 152004Z 17013G21KT 33/22 A2976 RMK A01 T03320221  RH  052%=      5-min Rain = 0
KTH1 152005Z 16016G22KT 33/22 A2976 RMK A01 T03330221  RH  052%=      5-min Rain = 0
KTH1 152006Z 17016G21KT 33/22 A2976 RMK A01 T03330221  RH  052%=      5-min Rain = 0
KTH1 152007Z 17013G21KT 33/22 A2976 RMK A01 T03330220  RH  052%=      5-min Rain = 0
KTH1 152008Z 17016G25KT 33/22 A2976 RMK A01 T03330221  RH  052%=      5-min Rain = 0
KTH1 152009Z 17016G22KT 33/22 A2976 RMK A01 T03330218  RH  051%=      5-min Rain = 0
KTH1 152010Z 17013G20KT 33/22 A2976 RMK A01 T03340220  RH  052%=      5-min Rain = 0
KTH1 152011Z 18012KT 33/22 A2976 RMK A01 T03340222  RH  052%=      5-min Rain = 0
KTH1 152012Z 19010G15KT 34/23 A2976 RMK A01 T03360226  RH  053%=      5-min Rain = 0
KTH1 152013Z 18013G20KT 34/22 A2976 RMK A01 T03370220  RH  050%=      5-min Rain = 0
KTH1 152014Z 18011KT 34/22 A2976 RMK A01 T03380223  RH  051%=      5-min Rain = 0
KTH1 152015Z 17012G17KT 34/22 A2976 RMK A01 T03380222  RH  051%=      5-min Rain = 0
KTH1 152016Z 18016G21KT 34/22 A2976 RMK A01 T03380219  RH  050%=      5-min Rain = 0
KTH1 152017Z 18015G23KT 34/22 A2976 RMK A01 T03380219  RH  050%=      5-min Rain = 0
KTH1 152018Z 16013G19KT 34/22 A2976 RMK A01 T03350215  RH  049%=      5-min Rain = 0
KTH1 152019Z 17010G16KT 33/22 A2976 RMK A01 T03330219  RH  051%=      5-min Rain = 0
KTH1 152020Z 17010KT 33/22 A2976 RMK A01 T03340220  RH  051%=      5-min Rain = 0
KTH1 152021Z 18011G17KT 34/22 A2976 RMK A01 T03360220  RH  051%=      5-min Rain = 0
KTH1 152022Z 17011G17KT 34/22 A2976 RMK A01 T03370221  RH  051%=      5-min Rain = 0
KTH1 152023Z 18017KT 34/22 A2976 RMK A01 T03370217  RH  050%=      5-min Rain = 0
KTH1 152024Z 17015G20KT 34/22 A2976 RMK A01 T03370219  RH  050%=      5-min Rain = 0
KTH1 152025Z 18014G19KT 34/22 A2976 RMK A01 T03370217  RH  050%=      5-min Rain = 0
KTH1 152026Z 16013KT 34/22 A2976 RMK A01 T03360218  RH  050%=      5-min Rain = 0
KTH1 152027Z 16013KT 34/22 A2976 RMK A01 T03360221  RH  051%=      5-min Rain = 0
KTH1 152028Z 16012KT 34/22 A2976 RMK A01 T03370219  RH  050%=      5-min Rain = 0
KTH1 152029Z 17012G19KT 34/22 A2976 RMK A01 T03370220  RH  051%=      5-min Rain = 0
KTH1 152030Z 17011KT 34/22 A2976 RMK A01 T03370223  RH  051%=      5-min Rain = 0
KTH1 152031Z 18008KT 34/23 A2976 RMK A01 T03380226  RH  052%=      5-min Rain = 0
KTH1 152032Z 18009G16KT 34/23 A2976 RMK A01 T03400226  RH  051%=      5-min Rain = 0
KTH1 152033Z 19012G17KT 34/22 A2976 RMK A01 T03420222  RH  050%=      5-min Rain = 0
KTH1 152034Z 19014KT 34/22 A2976 RMK A01 T03410220  RH  049%=      5-min Rain = 0
KTH1 152035Z 17010G15KT 34/22 A2976 RMK A01 T03400223  RH  051%=      5-min Rain = 0
KTH1 152036Z 16013G18KT 34/22 A2976 RMK A01 T03400223  RH  051%=      5-min Rain = 0
KTH1 152037Z 16013KT 34/22 A2976 RMK A01 T03400222  RH  050%=      5-min Rain = 0
KTH1 152038Z 16012G18KT 34/22 A2975 RMK A01 T03390220  RH  050%=      5-min Rain = 0
KTH1 152039Z 16012G21KT 34/22 A2975 RMK A01 T03380224  RH  051%=      5-min Rain = 0
KTH1 152040Z 17015G20KT 34/22 A2975 RMK A01 T03380219  RH  050%=      5-min Rain = 0
KTH1 152041Z 16010KT 34/22 A2975 RMK A01 T03370219  RH  050%=      5-min Rain = 0
KTH1 152042Z 17009KT 34/23 A2975 RMK A01 T03370225  RH  052%=      5-min Rain = 0
KTH1 152043Z 17008KT 34/22 A2975 RMK A01 T03380223  RH  051%=      5-min Rain = 0
KTH1 152044Z 18013G18KT 34/22 A2975 RMK A01 T03400222  RH  050%=      5-min Rain = 0
KTH1 152045Z 17018G26KT 34/22 A2975 RMK A01 T03400218  RH  049%=      5-min Rain = 0
KTH1 152046Z 19014G19KT 34/22 A2975 RMK A01 T03370218  RH  050%=      5-min Rain = 0
KTH1 152047Z 18011G16KT 34/22 A2975 RMK A01 T03360219  RH  050%=      5-min Rain = 0
KTH1 152048Z 18011G16KT 34/22 A2975 RMK A01 T03370220  RH  051%=      5-min Rain = 0
KTH1 152049Z 18010G15KT 34/22 A2975 RMK A01 T03380218  RH  050%=      5-min Rain = 0
KTH1 152050Z 18012G17KT 34/22 A2975 RMK A01 T03390223  RH  051%=      5-min Rain = 0
KTH1 152051Z 18012G19KT 34/22 A2975 RMK A01 T03400222  RH  050%=      5-min Rain = 0
KTH1 152052Z 19013G19KT 34/22 A2975 RMK A01 T03410222  RH  050%=      5-min Rain = 0
KTH1 152053Z 19011G16KT 34/22 A2975 RMK A01 T03420219  RH  049%=      5-min Rain = 0
KTH1 152054Z 19012G17KT 34/22 A2975 RMK A01 T03410221  RH  050%=      5-min Rain = 0
KTH1 152055Z 18014G20KT 34/22 A2975 RMK A01 T03410217  RH  048%=      5-min Rain = 0
KTH1 152056Z 18014KT 34/22 A2975 RMK A01 T03400216  RH  048%=      5-min Rain = 0
KTH1 152057Z 18010G15KT 34/22 A2975 RMK A01 T03390218  RH  049%=      5-min Rain = 0
KTH1 152058Z 18012KT 34/22 A2975 RMK A01 T03390218  RH  050%=      5-min Rain = 0
KTH1 152059Z 18009G14KT 34/22 A2975 RMK A01 T03390220  RH  050%=      5-min Rain = 0
KTH1 152100Z 18013G18KT 34/22 A2975 RMK A01 T03400220  RH  050%=      5-min Rain = 0
KTH1 152101Z 18012G17KT 34/22 A2975 RMK A01 T03400219  RH  049%=      5-min Rain = 0
KTH1 152102Z 19015KT 34/22 A2975 RMK A01 T03400219  RH  049%=      5-min Rain = 0
KTH1 152103Z 19012KT 34/22 A2975 RMK A01 T03390218  RH  049%=      5-min Rain = 0
KTH1 152104Z 19011G16KT 34/22 A2975 RMK A01 T03380222  RH  051%=      5-min Rain = 0
KTH1 152105Z 18012KT 34/22 A2975 RMK A01 T03390218  RH  049%=      5-min Rain = 0
KTH1 152106Z 19012KT 34/22 A2975 RMK A01 T03390219  RH  050%=      5-min Rain = 0
KTH1 152107Z 18015G20KT 34/22 A2975 RMK A01 T03390218  RH  049%=      5-min Rain = 0
KTH1 152108Z 18012G18KT 34/22 A2975 RMK A01 T03390218  RH  049%=      5-min Rain = 0
KTH1 152109Z 17011G17KT 34/22 A2975 RMK A01 T03390220  RH  050%=      5-min Rain = 0
KTH1 152110Z 17013KT 34/22 A2975 RMK A01 T03390218  RH  049%=      5-min Rain = 0
KTH1 152111Z 17012G17KT 34/22 A2975 RMK A01 T03390216  RH  049%=      5-min Rain = 0
KTH1 152112Z 17012G17KT 34/22 A2975 RMK A01 T03390217  RH  049%=      5-min Rain = 0
KTH1 152113Z 17010KT 34/22 A2975 RMK A01 T03390219  RH  050%=      5-min Rain = 0
KTH1 152114Z 18013G19KT 34/22 A2975 RMK A01 T03400217  RH  049%=      5-min Rain = 0
KTH1 152115Z 18013G19KT 34/22 A2975 RMK A01 T03400218  RH  049%=      5-min Rain = 0
KTH1 152116Z 19009G14KT 34/22 A2975 RMK A01 T03400218  RH  049%=      5-min Rain = 0
KTH1 152117Z 19008KT 34/22 A2975 RMK A01 T03400223  RH  050%=      5-min Rain = 0
KTH1 152118Z 18010G17KT 34/22 A2975 RMK A01 T03420219  RH  049%=      5-min Rain = 0
KTH1 152119Z 17014G21KT 34/22 A2975 RMK A01 T03420218  RH  048%=      5-min Rain = 0
KTH1 152120Z 18012G17KT 34/22 A2975 RMK A01 T03420217  RH  048%=      5-min Rain = 0
KTH1 152121Z 18010G16KT 34/22 A2975 RMK A01 T03410215  RH  048%=      5-min Rain = 0
KTH1 152122Z 17013G19KT 34/22 A2975 RMK A01 T03410218  RH  049%=      5-min Rain = 0
KTH1 152123Z 17014KT 34/22 A2975 RMK A01 T03410215  RH  048%=      5-min Rain = 0
KTH1 152124Z 18010G16KT 34/22 A2975 RMK A01 T03400217  RH  049%=      5-min Rain = 0
KTH1 152125Z 16012G20KT 34/22 A2975 RMK A01 T03400220  RH  050%=      5-min Rain = 0
KTH1 152126Z 18013KT 34/22 A2975 RMK A01 T03400218  RH  049%=      5-min Rain = 0
KTH1 152127Z 17011KT 34/22 A2975 RMK A01 T03390219  RH  050%=      5-min Rain = 0
KTH1 152128Z 17010G15KT 34/22 A2975 RMK A01 T03390223  RH  051%=      5-min Rain = 0
KTH1 152129Z 17010G15KT 34/22 A2975 RMK A01 T03390221  RH  050%=      5-min Rain = 0
KTH1 152130Z 17010G16KT 34/22 A2975 RMK A01 T03400224  RH  051%=      5-min Rain = 0
KTH1 152131Z 16012KT 34/22 A2974 RMK A01 T03410221  RH  049%=      5-min Rain = 0
KTH1 152132Z 17013G18KT 34/22 A2974 RMK A01 T03420219  RH  049%=      5-min Rain = 0
KTH1 152133Z 16011G18KT 34/22 A2974 RMK A01 T03400219  RH  049%=      5-min Rain = 0
KTH1 152134Z 17013KT 34/22 A2974 RMK A01 T03400220  RH  050%=      5-min Rain = 0
KTH1 152135Z 17014KT 34/22 A2974 RMK A01 T03400218  RH  049%=      5-min Rain = 0
KTH1 152136Z 16014KT 34/22 A2974 RMK A01 T03390218  RH  049%=      5-min Rain = 0
KTH1 152137Z 17011G16KT 34/22 A2974 RMK A01 T03380219  RH  050%=      5-min Rain = 0
KTH1 152138Z 16013KT 34/22 A2974 RMK A01 T03380220  RH  050%=      5-min Rain = 0
KTH1 152139Z 16012G17KT 34/22 A2974 RMK A01 T03380218  RH  050%=      5-min Rain = 0
KTH1 152140Z 15011G17KT 34/22 A2974 RMK A01 T03390219  RH  050%=      5-min Rain = 0
KTH1 152141Z 16014G20KT 34/22 A2973 RMK A01 T03380219  RH  050%=      5-min Rain = 0
KTH1 152142Z 16014G20KT 34/22 A2974 RMK A01 T03380218  RH  049%=      5-min Rain = 0
KTH1 152143Z 16012KT 34/22 A2974 RMK A01 T03380215  RH  049%=      5-min Rain = 0
KTH1 152144Z 17012G22KT 34/22 A2974 RMK A01 T03380219  RH  050%=      5-min Rain = 0
KTH1 152145Z 16013G19KT 34/22 A2974 RMK A01 T03380220  RH  050%=      5-min Rain = 0
KTH1 152146Z 16014KT 34/22 A2974 RMK A01 T03380219  RH  050%=      5-min Rain = 0
KTH1 152147Z 17015KT 34/22 A2974 RMK A01 T03380218  RH  050%=      5-min Rain = 0
KTH1 152148Z 17015G20KT 34/22 A2974 RMK A01 T03370218  RH  050%=      5-min Rain = 0
KTH1 152149Z 17015G21KT 34/22 A2974 RMK A01 T03360218  RH  050%=      5-min Rain = 0
KTH1 152150Z 16017G22KT 34/22 A2974 RMK A01 T03360218  RH  050%=      5-min Rain = 0
KTH1 152151Z 17017G23KT 34/22 A2973 RMK A01 T03360219  RH  051%=      5-min Rain = 0
KTH1 152152Z 16015G22KT 34/22 A2973 RMK A01 T03360219  RH  050%=      5-min Rain = 0
KTH1 152153Z 16016G21KT 34/22 A2973 RMK A01 T03360218  RH  050%=      5-min Rain = 0
KTH1 152154Z 16014G20KT 34/22 A2973 RMK A01 T03360218  RH  050%=      5-min Rain = 0
KTH1 152155Z 17012G17KT 34/22 A2973 RMK A01 T03370220  RH  051%=      5-min Rain = 0
KTH1 152156Z 16011KT 34/22 A2973 RMK A01 T03380221  RH  050%=      5-min Rain = 0
KTH1 152157Z 17009G15KT 34/22 A2973 RMK A01 T03390220  RH  050%=      5-min Rain = 0
KTH1 152158Z 16011G18KT 34/22 A2973 RMK A01 T03390224  RH  051%=      5-min Rain = 0
KTH1 152159Z 17016G22KT 34/22 A2973 RMK A01 T03410221  RH  050%=      5-min Rain = 0
KTH1 152200Z 16013KT 34/22 A2973 RMK A01 T03400218  RH  049%=      5-min Rain = 0
KTH1 152201Z 17011G17KT 34/22 A2974 RMK A01 T03390221  RH  050%=      5-min Rain = 0
KTH1 152202Z 18009KT 34/22 A2974 RMK A01 T03390220  RH  050%=      5-min Rain = 0
KTH1 152203Z 18008KT 34/22 A2974 RMK A01 T03400222  RH  050%=      5-min Rain = 0
KTH1 152204Z 19005KT 34/23 A2974 RMK A01 T03420226  RH  051%=      5-min Rain = 0
KTH1 152205Z 18007G13KT 34/23 A2974 RMK A01 T03440227  RH  050%=      5-min Rain = 0
KTH1 152206Z 17010KT 35/22 A2974 RMK A01 T03460224  RH  049%=      5-min Rain = 0
KTH1 152207Z 18009G15KT 35/22 A2973 RMK A01 T03460223  RH  049%=      5-min Rain = 0
KTH1 152208Z 19012KT 35/22 A2973 RMK A01 T03460223  RH  049%=      5-min Rain = 0
KTH1 152209Z 19011G16KT 35/22 A2973 RMK A01 T03450218  RH  048%=      5-min Rain = 0
KTH1 152210Z 18010G15KT 34/22 A2973 RMK A01 T03430218  RH  048%=      5-min Rain = 0
KTH1 152211Z 17009G20KT 34/22 A2973 RMK A01 T03420220  RH  049%=      5-min Rain = 0
KTH1 152212Z 18011G17KT 34/22 A2973 RMK A01 T03430220  RH  049%=      5-min Rain = 0
KTH1 152213Z 16010KT 34/22 A2973 RMK A01 T03420218  RH  048%=      5-min Rain = 0
KTH1 152214Z 17008KT 34/22 A2973 RMK A01 T03410220  RH  049%=      5-min Rain = 0
KTH1 152215Z 18015G20KT 34/22 A2973 RMK A01 T03410219  RH  049%=      5-min Rain = 0
KTH1 152216Z 17012G17KT 34/22 A2973 RMK A01 T03410218  RH  049%=      5-min Rain = 0
KTH1 152217Z 15013KT 34/22 A2973 RMK A01 T03410218  RH  049%=      5-min Rain = 0
KTH1 152218Z 17011KT 34/22 A2973 RMK A01 T03400217  RH  048%=      5-min Rain = 0
KTH1 152219Z 16013G18KT 34/22 A2973 RMK A01 T03390216  RH  049%=      5-min Rain = 0
KTH1 152220Z 17011G16KT 34/22 A2973 RMK A01 T03390218  RH  049%=      5-min Rain = 0
KTH1 152221Z 18011KT 34/22 A2973 RMK A01 T03390216  RH  049%=      5-min Rain = 0
KTH1 152222Z 17013G20KT 34/22 A2973 RMK A01 T03390218  RH  049%=      5-min Rain = 0
KTH1 152223Z 17010G15KT 34/22 A2973 RMK A01 T03390216  RH  049%=      5-min Rain = 0
KTH1 152224Z 17009G16KT 34/22 A2973 RMK A01 T03400221  RH  050%=      5-min Rain = 0
KTH1 152225Z 16012G18KT 34/22 A2973 RMK A01 T03400218  RH  049%=      5-min Rain = 0
KTH1 152226Z 16011KT 34/22 A2973 RMK A01 T03410219  RH  049%=      5-min Rain = 0
KTH1 152227Z 16015G22KT 34/22 A2973 RMK A01 T03400218  RH  049%=      5-min Rain = 0
KTH1 152228Z 16014G19KT 34/22 A2973 RMK A01 T03400217  RH  049%=      5-min Rain = 0
KTH1 152229Z 15012G20KT 34/22 A2973 RMK A01 T03390218  RH  049%=      5-min Rain = 0
KTH1 152230Z 16015KT 34/22 A2973 RMK A01 T03390218  RH  049%=      5-min Rain = 0
KTH1 152231Z 16016KT 34/22 A2973 RMK A01 T03390217  RH  049%=      5-min Rain = 0
KTH1 152232Z 16011G17KT 34/22 A2973 RMK A01 T03390218  RH  049%=      5-min Rain = 0
KTH1 152233Z 15012G18KT 34/22 A2972 RMK A01 T03390219  RH  050%=      5-min Rain = 0
KTH1 152234Z 15013KT 34/22 A2972 RMK A01 T03390219  RH  049%=      5-min Rain = 0
KTH1 152235Z 15015KT 34/22 A2972 RMK A01 T03400218  RH  049%=      5-min Rain = 0
KTH1 152236Z 15016G24KT 34/22 A2972 RMK A01 T03400218  RH  049%=      5-min Rain = 0
KTH1 152237Z 16016KT 34/22 A2972 RMK A01 T03390217  RH  049%=      5-min Rain = 0
KTH1 152238Z 16012G18KT 34/22 A2972 RMK A01 T03380217  RH  049%=      5-min Rain = 0
KTH1 152239Z 16010KT 34/22 A2972 RMK A01 T03380220  RH  050%=      5-min Rain = 0
KTH1 152240Z 16007KT 34/22 A2972 RMK A01 T03390221  RH  050%=      5-min Rain = 0
KTH1 152241Z 16011G16KT 34/22 A2972 RMK A01 T03400221  RH  050%=      5-min Rain = 0
KTH1 152242Z 16011G17KT 34/22 A2972 RMK A01 T03410221  RH  050%=      5-min Rain = 0
KTH1 152243Z 16012G17KT 34/22 A2972 RMK A01 T03420221  RH  049%=      5-min Rain = 0
KTH1 152244Z 15011KT 34/22 A2972 RMK A01 T03420219  RH  049%=      5-min Rain = 0
KTH1 152245Z 17013KT 34/22 A2972 RMK A01 T03410219  RH  049%=      5-min Rain = 0
KTH1 152246Z 16010G15KT 34/22 A2972 RMK A01 T03400218  RH  049%=      5-min Rain = 0
KTH1 152247Z 16012KT 34/22 A2972 RMK A01 T03400221  RH  050%=      5-min Rain = 0
KTH1 152248Z 17012G18KT 34/22 A2972 RMK A01 T03400218  RH  049%=      5-min Rain = 0
KTH1 152249Z 17012G18KT 34/22 A2972 RMK A01 T03400219  RH  049%=      5-min Rain = 0
KTH1 152250Z 16014G20KT 34/22 A2972 RMK A01 T03400220  RH  050%=      5-min Rain = 0
KTH1 152251Z 17014KT 34/22 A2972 RMK A01 T03400220  RH  049%=      5-min Rain = 0
KTH1 152252Z 17013KT 34/22 A2972 RMK A01 T03400219  RH  049%=      5-min Rain = 0
KTH1 152253Z 17013G18KT 34/22 A2972 RMK A01 T03390218  RH  049%=      5-min Rain = 0
KTH1 152254Z 16009KT 34/22 A2972 RMK A01 T03390220  RH  050%=      5-min Rain = 0
KTH1 152255Z 17012G17KT 34/22 A2971 RMK A01 T03380221  RH  050%=      5-min Rain = 0
KTH1 152256Z 16011G18KT 34/22 A2971 RMK A01 T03390221  RH  050%=      5-min Rain = 0
KTH1 152257Z 16011G18KT 34/22 A2971 RMK A01 T03390221  RH  050%=      5-min Rain = 0
KTH1 152258Z 17013G20KT 34/22 A2971 RMK A01 T03390221  RH  050%=      5-min Rain = 0
KTH1 152259Z 17010G15KT 34/22 A2971 RMK A01 T03400220  RH  050%=      5-min Rain = 0
KTH1 152300Z 16009KT 34/22 A2971 RMK A01 T03400222  RH  050%=      5-min Rain = 0
KTH1 152301Z 17007KT 34/22 A2971 RMK A01 T03400224  RH  051%=      5-min Rain = 0
KTH1 152302Z 16011KT 34/22 A2971 RMK A01 T03410223  RH  050%=      5-min Rain = 0
KTH1 152303Z 16012G18KT 34/22 A2971 RMK A01 T03410222  RH  050%=      5-min Rain = 0
KTH1 152304Z 15013KT 34/22 A2971 RMK A01 T03400219  RH  049%=      5-min Rain = 0
KTH1 152305Z 17011KT 34/22 A2971 RMK A01 T03400220  RH  050%=      5-min Rain = 0
KTH1 152306Z 17008KT 34/22 A2971 RMK A01 T03400220  RH  050%=      5-min Rain = 0
KTH1 152307Z 17011G16KT 34/22 A2971 RMK A01 T03390220  RH  050%=      5-min Rain = 0
KTH1 152308Z 16008KT 34/22 A2971 RMK A01 T03390221  RH  050%=      5-min Rain = 0
KTH1 152309Z 16013G19KT 34/22 A2971 RMK A01 T03400218  RH  049%=      5-min Rain = 0
KTH1 152310Z 16016KT 34/22 A2971 RMK A01 T03390215  RH  048%=      5-min Rain = 0
KTH1 152311Z 16015G20KT 34/21 A2971 RMK A01 T03380213  RH  048%=      5-min Rain = 0
KTH1 152312Z 16014G19KT 34/21 A2971 RMK A01 T03370214  RH  049%=      5-min Rain = 0
KTH1 152313Z 16011G16KT 34/21 A2971 RMK A01 T03360214  RH  049%=      5-min Rain = 0
KTH1 152314Z 16010KT 33/21 A2971 RMK A01 T03340214  RH  049%=      5-min Rain = 0
KTH1 152315Z 16012G17KT 33/22 A2971 RMK A01 T03330215  RH  050%=      5-min Rain = 0
KTH1 152316Z 16011KT 33/21 A297 RMK A01 T03310212  RH  050%=      5-min Rain = 0
KTH1 152317Z 16014KT 33/21 A297 RMK A01 T03290213  RH  050%=      5-min Rain = 0
KTH1 152318Z 16013G18KT 33/21 A297 RMK A01 T03280212  RH  051%=      5-min Rain = 0
KTH1 152319Z 15013G18KT 33/21 A297 RMK A01 T03280213  RH  051%=      5-min Rain = 0
KTH1 152320Z 16014G19KT 33/21 A297 RMK A01 T03280214  RH  051%=      5-min Rain = 0
KTH1 152321Z 16015KT 33/21 A297 RMK A01 T03290213  RH  050%=      5-min Rain = 0
KTH1 152322Z 16012G17KT 33/21 A297 RMK A01 T03310214  RH  050%=      5-min Rain = 0
KTH1 152323Z 16014G19KT 33/21 A297 RMK A01 T03330214  RH  050%=      5-min Rain = 0
KTH1 152324Z 16015KT 33/21 A297 RMK A01 T03330214  RH  050%=      5-min Rain = 0
KTH1 152325Z 17011G17KT 33/22 A297 RMK A01 T03340215  RH  050%=      5-min Rain = 0
KTH1 152326Z 16011G17KT 33/22 A297 RMK A01 T03340215  RH  050%=      5-min Rain = 0
KTH1 152327Z 15010KT 33/22 A297 RMK A01 T03340216  RH  050%=      5-min Rain = 0
KTH1 152328Z 16011KT 33/22 A297 RMK A01 T03330218  RH  051%=      5-min Rain = 0
KTH1 152329Z 17013KT 33/22 A297 RMK A01 T03330217  RH  051%=      5-min Rain = 0
KTH1 152330Z 16011G16KT 33/22 A297 RMK A01 T03330217  RH  051%=      5-min Rain = 0
KTH1 152331Z 16009KT 33/22 A297 RMK A01 T03320218  RH  051%=      5-min Rain = 0
KTH1 152332Z 17010KT 33/22 A297 RMK A01 T03330220  RH  051%=      5-min Rain = 0
KTH1 152333Z 18009KT 34/22 A297 RMK A01 T03350220  RH  051%=      5-min Rain = 0
KTH1 152334Z 17009KT 34/22 A297 RMK A01 T03360222  RH  051%=      5-min Rain = 0
KTH1 152335Z 17012G19KT 34/22 A297 RMK A01 T03370220  RH  050%=      5-min Rain = 0
KTH1 152336Z 15013G19KT 34/22 A297 RMK A01 T03350216  RH  050%=      5-min Rain = 0
KTH1 152337Z 16013KT 33/22 A297 RMK A01 T03340216  RH  050%=      5-min Rain = 0
KTH1 152338Z 16013KT 33/22 A297 RMK A01 T03320215  RH  050%=      5-min Rain = 0
KTH1 152339Z 16014KT 33/22 A297 RMK A01 T03320215  RH  050%=      5-min Rain = 0
KTH1 152340Z 16011G17KT 33/22 A297 RMK A01 T03310215  RH  051%=      5-min Rain = 0
KTH1 152341Z 17009KT 33/21 A297 RMK A01 T03300214  RH  051%=      5-min Rain = 0
KTH1 152342Z 18009G14KT 33/22 A297 RMK A01 T03300215  RH  051%=      5-min Rain = 0
KTH1 152343Z 17011G16KT 33/21 A297 RMK A01 T03290214  RH  051%=      5-min Rain = 0
KTH1 152344Z 18009KT 33/22 A297 RMK A01 T03290215  RH  051%=      5-min Rain = 0
KTH1 152345Z 18007G12KT 33/22 A297 RMK A01 T03280216  RH  052%=      5-min Rain = 0
KTH1 152346Z 18009KT 33/22 A297 RMK A01 T03280215  RH  051%=      5-min Rain = 0
KTH1 152347Z 18008KT 33/22 A297 RMK A01 T03290216  RH  051%=      5-min Rain = 0
KTH1 152348Z 18008KT 33/21 A297 RMK A01 T03300213  RH  050%=      5-min Rain = 0
KTH1 152349Z 17006KT 33/22 A297 RMK A01 T03320216  RH  051%=      5-min Rain = 0
KTH1 152350Z 17009KT 33/22 A297 RMK A01 T03330218  RH  051%=      5-min Rain = 0
KTH1 152351Z 17010KT 33/22 A297 RMK A01 T03320215  RH  050%=      5-min Rain = 0
KTH1 152352Z 16008KT 33/22 A297 RMK A01 T03310216  RH  051%=      5-min Rain = 0
KTH1 152353Z 17006KT 33/22 A297 RMK A01 T03300218  RH  052%=      5-min Rain = 0
KTH1 152354Z 17008KT 33/22 A297 RMK A01 T03290219  RH  053%=      5-min Rain = 0
KTH1 152355Z 16012KT 33/22 A297 RMK A01 T03280217  RH  052%=      5-min Rain = 0
KTH1 152356Z 16011KT 33/22 A297 RMK A01 T03270217  RH  053%=      5-min Rain = 0
KTH1 152357Z 16010KT 33/22 A297 RMK A01 T03260217  RH  053%=      5-min Rain = 0
KTH1 152358Z 17009KT 33/22 A297 RMK A01 T03260218  RH  053%=      5-min Rain = 0
KTH1 152359Z 17008KT 33/22 A297 RMK A01 T03250219  RH  054%=      5-min Rain = 0
KTH1 160000Z 17008KT 32/22 A297 RMK A01 T03240219  RH  054%=      5-min Rain = 0
KTH1 160001Z 16010G17KT 32/22 A297 RMK A01 T03230216  RH  053%=      5-min Rain = 0
KTH1 160002Z 18012KT 32/21 A297 RMK A01 T03230214  RH  053%=      5-min Rain = 0
KTH1 160003Z 18010KT 32/21 A297 RMK A01 T03230212  RH  052%=      5-min Rain = 0
KTH1 160004Z 17008KT 32/21 A297 RMK A01 T03230212  RH  052%=      5-min Rain = 0
KTH1 160005Z 17008KT 32/21 A2971 RMK A01 T03230212  RH  052%=      5-min Rain = 0
KTH1 160006Z 16007KT 32/21 A2971 RMK A01 T03230213  RH  052%=      5-min Rain = 0
KTH1 160007Z 16009KT 32/21 A2971 RMK A01 T03230213  RH  052%=      5-min Rain = 0
KTH1 160008Z 16009KT 32/21 A2971 RMK A01 T03220212  RH  052%=      5-min Rain = 0
KTH1 160009Z 16009G14KT 32/21 A2971 RMK A01 T03220211  RH  052%=      5-min Rain = 0
KTH1 160010Z 17010G16KT 32/21 A2971 RMK A01 T03220210  RH  052%=      5-min Rain = 0
KTH1 160011Z 15010KT 32/21 A2971 RMK A01 T03230211  RH  052%=      5-min Rain = 0
KTH1 160012Z 15011KT 32/21 A2971 RMK A01 T03230211  RH  052%=      5-min Rain = 0
KTH1 160013Z 15009KT 32/21 A2971 RMK A01 T03240211  RH  052%=      5-min Rain = 0
KTH1 160014Z 16010KT 32/21 A2971 RMK A01 T03240212  RH  052%=      5-min Rain = 0
KTH1 160015Z 15007KT 32/21 A2971 RMK A01 T03240212  RH  052%=      5-min Rain = 0
KTH1 160016Z 16006KT 32/21 A2971 RMK A01 T03240213  RH  052%=      5-min Rain = 0
KTH1 160017Z 15007KT 32/22 A2971 RMK A01 T03240215  RH  053%=      5-min Rain = 0
KTH1 160018Z 16007KT 32/22 A2971 RMK A01 T03230215  RH  053%=      5-min Rain = 0
KTH1 160019Z 15006KT 32/22 A2971 RMK A01 T03220215  RH  053%=      5-min Rain = 0
KTH1 160020Z 15006KT 32/22 A2971 RMK A01 T03220216  RH  054%=      5-min Rain = 0
KTH1 160021Z 16007KT 32/22 A2971 RMK A01 T03210216  RH  054%=      5-min Rain = 0
KTH1 160022Z 15005KT 32/22 A2971 RMK A01 T03210216  RH  054%=      5-min Rain = 0
KTH1 160023Z 15006KT 32/22 A2972 RMK A01 T03210217  RH  054%=      5-min Rain = 0
KTH1 160024Z 15005KT 32/22 A2972 RMK A01 T03200218  RH  055%=      5-min Rain = 0
KTH1 160025Z 16007KT 32/22 A2972 RMK A01 T03200217  RH  055%=      5-min Rain = 0
KTH1 160026Z 16006KT 32/22 A2972 RMK A01 T03190216  RH  055%=      5-min Rain = 0
KTH1 160027Z 15005KT 32/22 A2972 RMK A01 T03190217  RH  055%=      5-min Rain = 0
KTH1 160028Z 16007KT 32/22 A2972 RMK A01 T03190218  RH  055%=      5-min Rain = 0
KTH1 160029Z 16006KT 32/22 A2972 RMK A01 T03190217  RH  055%=      5-min Rain = 0
KTH1 160030Z 16007KT 32/22 A2972 RMK A01 T03180218  RH  055%=      5-min Rain = 0
KTH1 160031Z 16007KT 32/22 A2972 RMK A01 T03180217  RH  055%=      5-min Rain = 0
KTH1 160032Z 16008KT 32/22 A2972 RMK A01 T03180216  RH  055%=      5-min Rain = 0
KTH1 160033Z 15008KT 32/22 A2972 RMK A01 T03180216  RH  055%=      5-min Rain = 0
KTH1 160034Z 16007KT 32/22 A2972 RMK A01 T03180217  RH  055%=      5-min Rain = 0
KTH1 160035Z 15006KT 32/22 A2972 RMK A01 T03180217  RH  055%=      5-min Rain = 0
KTH1 160036Z 15006KT 32/22 A2972 RMK A01 T03180217  RH  055%=      5-min Rain = 0
KTH1 160037Z 15007KT 32/22 A2972 RMK A01 T03180218  RH  056%=      5-min Rain = 0
KTH1 160038Z 15007KT 32/22 A2972 RMK A01 T03170217  RH  056%=      5-min Rain = 0
KTH1 160039Z 15007KT 32/22 A2972 RMK A01 T03170218  RH  056%=      5-min Rain = 0
KTH1 160040Z 15006KT 32/22 A2972 RMK A01 T03160218  RH  056%=      5-min Rain = 0
KTH1 160041Z 15005KT 32/22 A2972 RMK A01 T03160218  RH  056%=      5-min Rain = 0
KTH1 160042Z 15007KT 32/22 A2972 RMK A01 T03150218  RH  056%=      5-min Rain = 0
KTH1 160043Z 15005KT 32/22 A2972 RMK A01 T03150218  RH  057%=      5-min Rain = 0
KTH1 160044Z 15007KT 31/22 A2972 RMK A01 T03140218  RH  057%=      5-min Rain = 0
KTH1 160045Z 15006KT 31/22 A2972 RMK A01 T03140218  RH  057%=      5-min Rain = 0
KTH1 160046Z 15006KT 31/22 A2972 RMK A01 T03140219  RH  057%=      5-min Rain = 0
KTH1 160047Z 16007KT 31/22 A2972 RMK A01 T03130219  RH  057%=      5-min Rain = 0
KTH1 160048Z 15006KT 31/22 A2972 RMK A01 T03130220  RH  058%=      5-min Rain = 0
KTH1 160049Z 16006KT 31/22 A2972 RMK A01 T03120219  RH  058%=      5-min Rain = 0
KTH1 160050Z 15007KT 31/22 A2972 RMK A01 T03120219  RH  058%=      5-min Rain = 0
KTH1 160051Z 15007KT 31/22 A2972 RMK A01 T03120219  RH  058%=      5-min Rain = 0
KTH1 160052Z 16007KT 31/22 A2972 RMK A01 T03120220  RH  058%=      5-min Rain = 0
KTH1 160053Z 16007KT 31/22 A2972 RMK A01 T03120220  RH  058%=      5-min Rain = 0
KTH1 160054Z 16007KT 31/22 A2972 RMK A01 T03120220  RH  058%=      5-min Rain = 0
KTH1 160055Z 15007KT 31/22 A2972 RMK A01 T03110220  RH  058%=      5-min Rain = 0
KTH1 160056Z 15007KT 31/22 A2972 RMK A01 T03110220  RH  058%=      5-min Rain = 0
KTH1 160057Z 15006KT 31/22 A2972 RMK A01 T03110221  RH  059%=      5-min Rain = 0
KTH1 160058Z 15008KT 31/22 A2972 RMK A01 T03100221  RH  059%=      5-min Rain = 0
KTH1 160059Z 16008KT 31/22 A2972 RMK A01 T03110220  RH  059%=      5-min Rain = 0
KTH1 160100Z 16009KT 31/22 A2972 RMK A01 T03100220  RH  059%=      5-min Rain = 0
KTH1 160101Z 15007KT 31/22 A2972 RMK A01 T03110220  RH  059%=      5-min Rain = 0
KTH1 160102Z 16006KT 31/22 A2972 RMK A01 T03100220  RH  059%=      5-min Rain = 0
KTH1 160103Z 16007KT 31/22 A2973 RMK A01 T03100221  RH  059%=      5-min Rain = 0
KTH1 160104Z 15007KT 31/22 A2973 RMK A01 T03100221  RH  059%=      5-min Rain = 0
KTH1 160105Z 16007KT 31/22 A2973 RMK A01 T03100220  RH  059%=      5-min Rain = 0
KTH1 160106Z 15006KT 31/22 A2973 RMK A01 T03090220  RH  059%=      5-min Rain = 0
KTH1 160107Z 16006KT 31/22 A2973 RMK A01 T03090221  RH  059%=      5-min Rain = 0
KTH1 160108Z 15008KT 31/22 A2973 RMK A01 T03090221  RH  059%=      5-min Rain = 0
KTH1 160109Z 16007KT 31/22 A2973 RMK A01 T03090220  RH  059%=      5-min Rain = 0
KTH1 160110Z 16006KT 31/22 A2973 RMK A01 T03090220  RH  059%=      5-min Rain = 0
KTH1 160111Z 15007KT 31/22 A2973 RMK A01 T03090220  RH  059%=      5-min Rain = 0
KTH1 160112Z 15007KT 31/22 A2973 RMK A01 T03090220  RH  059%=      5-min Rain = 0
KTH1 160113Z 16006KT 31/22 A2973 RMK A01 T03090221  RH  059%=      5-min Rain = 0
KTH1 160114Z 16006KT 31/22 A2973 RMK A01 T03090221  RH  059%=      5-min Rain = 0
KTH1 160115Z 16005KT 31/22 A2973 RMK A01 T03080221  RH  060%=      5-min Rain = 0
KTH1 160116Z 17005KT 31/22 A2973 RMK A01 T03080221  RH  060%=      5-min Rain = 0
KTH1 160117Z 16005KT 31/22 A2973 RMK A01 T03080220  RH  060%=      5-min Rain = 0
KTH1 160118Z 16005KT 31/22 A2973 RMK A01 T03070220  RH  060%=      5-min Rain = 0
KTH1 160119Z 16005KT 31/22 A2973 RMK A01 T03080220  RH  060%=      5-min Rain = 0
KTH1 160120Z 16005KT 31/22 A2973 RMK A01 T03070221  RH  060%=      5-min Rain = 0
KTH1 160121Z 16005KT 31/22 A2974 RMK A01 T03070221  RH  060%=      5-min Rain = 0
KTH1 160122Z 17005KT 31/22 A2974 RMK A01 T03060221  RH  060%=      5-min Rain = 0
KTH1 160123Z 16005KT 31/22 A2974 RMK A01 T03060221  RH  060%=      5-min Rain = 0
KTH1 160124Z 16005KT 31/22 A2974 RMK A01 T03060221  RH  061%=      5-min Rain = 0
KTH1 160125Z 16004KT 31/22 A2974 RMK A01 T03060222  RH  061%=      5-min Rain = 0
KTH1 160126Z 16006KT 31/22 A2974 RMK A01 T03050222  RH  061%=      5-min Rain = 0
KTH1 160127Z 16005KT 30/22 A2974 RMK A01 T03040221  RH  061%=      5-min Rain = 0
KTH1 160128Z 16004KT 30/22 A2974 RMK A01 T03040221  RH  061%=      5-min Rain = 0
KTH1 160129Z 16005KT 30/22 A2974 RMK A01 T03040222  RH  062%=      5-min Rain = 0
KTH1 160130Z 16005KT 30/22 A2974 RMK A01 T03030222  RH  062%=      5-min Rain = 0
KTH1 160131Z 16004KT 30/22 A2974 RMK A01 T03030222  RH  062%=      5-min Rain = 0
KTH1 160132Z 16004KT 30/22 A2974 RMK A01 T03020222  RH  062%=      5-min Rain = 0
KTH1 160133Z 15004KT 30/22 A2974 RMK A01 T03020222  RH  062%=      5-min Rain = 0
KTH1 160134Z 15005KT 30/22 A2974 RMK A01 T03010222  RH  062%=      5-min Rain = 0
KTH1 160135Z 15005KT 30/22 A2973 RMK A01 T03010222  RH  062%=      5-min Rain = 0
KTH1 160136Z 15004KT 30/22 A2973 RMK A01 T03010222  RH  063%=      5-min Rain = 0
KTH1 160137Z 15005KT 30/22 A2973 RMK A01 T03000222  RH  063%=      5-min Rain = 0
KTH1 160138Z 15005KT 30/22 A2973 RMK A01 T03000222  RH  063%=      5-min Rain = 0
KTH1 160139Z 15005KT 30/22 A2973 RMK A01 T02990222  RH  063%=      5-min Rain = 0
KTH1 160140Z 15005KT 30/22 A2973 RMK A01 T02980222  RH  064%=      5-min Rain = 0
KTH1 160141Z 15005KT 30/22 A2973 RMK A01 T02980222  RH  064%=      5-min Rain = 0
KTH1 160142Z 15005KT 30/22 A2973 RMK A01 T02970222  RH  064%=      5-min Rain = 0
KTH1 160143Z 15005KT 30/22 A2973 RMK A01 T02970222  RH  064%=      5-min Rain = 0
KTH1 160144Z 15005KT 30/22 A2973 RMK A01 T02970222  RH  064%=      5-min Rain = 0
KTH1 160145Z 15005KT 30/22 A2973 RMK A01 T02960222  RH  064%=      5-min Rain = 0
KTH1 160146Z 16006KT 30/22 A2973 RMK A01 T02960222  RH  065%=      5-min Rain = 0
KTH1 160147Z 16005KT 30/22 A2973 RMK A01 T02960222  RH  065%=      5-min Rain = 0
KTH1 160148Z 15005KT 30/22 A2973 RMK A01 T02950222  RH  065%=      5-min Rain = 0
KTH1 160149Z 15006KT 30/22 A2973 RMK A01 T02950222  RH  065%=      5-min Rain = 0
KTH1 160150Z 15006KT 29/22 A2973 RMK A01 T02940222  RH  065%=      5-min Rain = 0
KTH1 160151Z 16005KT 29/22 A2973 RMK A01 T02940222  RH  065%=      5-min Rain = 0
KTH1 160152Z 15006KT 29/22 A2973 RMK A01 T02940222  RH  065%=      5-min Rain = 0
KTH1 160153Z 16006KT 29/22 A2973 RMK A01 T02940222  RH  065%=      5-min Rain = 0
KTH1 160154Z 16006KT 29/22 A2973 RMK A01 T02940222  RH  065%=      5-min Rain = 0
KTH1 160155Z 16008KT 29/22 A2973 RMK A01 T02930221  RH  065%=      5-min Rain = 0
KTH1 160156Z 15006KT 29/22 A2973 RMK A01 T02930221  RH  065%=      5-min Rain = 0
KTH1 160157Z 15007KT 29/22 A2973 RMK A01 T02930221  RH  065%=      5-min Rain = 0
KTH1 160158Z 16007KT 29/22 A2973 RMK A01 T02930220  RH  065%=      5-min Rain = 0
KTH1 160159Z 15007KT 29/22 A2973 RMK A01 T02930220  RH  065%=      5-min Rain = 0
KTH1 160200Z 15005KT 29/22 A2973 RMK A01 T02930220  RH  065%=      5-min Rain = 0
KTH1 160201Z 15007KT 29/22 A2973 RMK A01 T02940221  RH  065%=      5-min Rain = 0
KTH1 160202Z 14006KT 29/22 A2973 RMK A01 T02930220  RH  065%=      5-min Rain = 0
KTH1 160203Z 15006KT 29/22 A2973 RMK A01 T02930221  RH  065%=      5-min Rain = 0
KTH1 160204Z 14006KT 29/22 A2972 RMK A01 T02930221  RH  065%=      5-min Rain = 0
KTH1 160205Z 14006KT 29/22 A2972 RMK A01 T02930221  RH  065%=      5-min Rain = 0
KTH1 160206Z 14007KT 29/22 A2972 RMK A01 T02920220  RH  065%=      5-min Rain = 0
KTH1 160207Z 15006KT 29/22 A2972 RMK A01 T02920220  RH  065%=      5-min Rain = 0
KTH1 160208Z 14006KT 29/22 A2972 RMK A01 T02920220  RH  065%=      5-min Rain = 0
KTH1 160209Z 15006KT 29/22 A2973 RMK A01 T02920220  RH  065%=      5-min Rain = 0
KTH1 160210Z 15006KT 29/22 A2973 RMK A01 T02910221  RH  066%=      5-min Rain = 0
KTH1 160211Z 15006KT 29/22 A2973 RMK A01 T02910221  RH  066%=      5-min Rain = 0
KTH1 160212Z 16005KT 29/22 A2973 RMK A01 T02910220  RH  066%=      5-min Rain = 0
KTH1 160213Z 16005KT 29/22 A2973 RMK A01 T02910221  RH  066%=      5-min Rain = 0
KTH1 160214Z 16005KT 29/22 A2973 RMK A01 T02900221  RH  066%=      5-min Rain = 0
KTH1 160215Z 16005KT 29/22 A2973 RMK A01 T02900220  RH  066%=      5-min Rain = 0
KTH1 160216Z 16005KT 29/22 A2973 RMK A01 T02900220  RH  066%=      5-min Rain = 0
KTH1 160217Z 15005KT 29/22 A2973 RMK A01 T02890220  RH  066%=      5-min Rain = 0
KTH1 160218Z 15006KT 29/22 A2973 RMK A01 T02890220  RH  066%=      5-min Rain = 0
KTH1 160219Z 15007KT 29/22 A2973 RMK A01 T02890220  RH  066%=      5-min Rain = 0
KTH1 160220Z 14006KT 29/22 A2973 RMK A01 T02880220  RH  067%=      5-min Rain = 0
KTH1 160221Z 14007KT 29/22 A2972 RMK A01 T02880220  RH  067%=      5-min Rain = 0
KTH1 160222Z 14006KT 29/22 A2972 RMK A01 T02880220  RH  067%=      5-min Rain = 0
KTH1 160223Z 14005KT 29/22 A2972 RMK A01 T02880220  RH  067%=      5-min Rain = 0
KTH1 160224Z 14005KT 29/22 A2973 RMK A01 T02870220  RH  067%=      5-min Rain = 0
KTH1 160225Z 14005KT 29/22 A2973 RMK A01 T02880220  RH  067%=      5-min Rain = 0
KTH1 160226Z 14006KT 29/22 A2973 RMK A01 T02880220  RH  067%=      5-min Rain = 0
KTH1 160227Z 14005KT 29/22 A2973 RMK A01 T02880220  RH  067%=      5-min Rain = 0
KTH1 160228Z 14005KT 29/22 A2973 RMK A01 T02880221  RH  067%=      5-min Rain = 0
KTH1 160229Z 14006KT 29/22 A2973 RMK A01 T02880221  RH  067%=      5-min Rain = 0
KTH1 160230Z 13005KT 29/22 A2973 RMK A01 T02880221  RH  067%=      5-min Rain = 0
KTH1 160231Z 14006KT 29/22 A2973 RMK A01 T02870221  RH  068%=      5-min Rain = 0
KTH1 160232Z 14005KT 29/22 A2973 RMK A01 T02870221  RH  068%=      5-min Rain = 0
KTH1 160233Z 14006KT 29/22 A2973 RMK A01 T02870221  RH  068%=      5-min Rain = 0
KTH1 160234Z 14007KT 29/22 A2973 RMK A01 T02860221  RH  068%=      5-min Rain = 0
KTH1 160235Z 14006KT 29/22 A2973 RMK A01 T02870221  RH  067%=      5-min Rain = 0
KTH1 160236Z 14008KT 29/22 A2973 RMK A01 T02870220  RH  067%=      5-min Rain = 0
KTH1 160237Z 14007KT 29/22 A2973 RMK A01 T02870220  RH  067%=      5-min Rain = 0
KTH1 160238Z 14006KT 29/22 A2973 RMK A01 T02870221  RH  067%=      5-min Rain = 0
KTH1 160239Z 15007KT 29/22 A2973 RMK A01 T02870221  RH  067%=      5-min Rain = 0
KTH1 160240Z 14006KT 29/22 A2973 RMK A01 T02870220  RH  067%=      5-min Rain = 0
KTH1 160241Z 14006KT 29/22 A2973 RMK A01 T02870220  RH  067%=      5-min Rain = 0
KTH1 160242Z 14007KT 29/22 A2973 RMK A01 T02870219  RH  067%=      5-min Rain = 0
KTH1 160243Z 14007KT 29/22 A2973 RMK A01 T02870219  RH  067%=      5-min Rain = 0
KTH1 160244Z 14008KT 29/22 A2973 RMK A01 T02870219  RH  066%=      5-min Rain = 0
KTH1 160245Z 14010KT 29/22 A2973 RMK A01 T02880219  RH  066%=      5-min Rain = 0
KTH1 160246Z 15010KT 29/22 A2973 RMK A01 T02880218  RH  066%=      5-min Rain = 0
KTH1 160247Z 14009KT 29/22 A2973 RMK A01 T02890218  RH  065%=      5-min Rain = 0
KTH1 160248Z 15008KT 29/22 A2973 RMK A01 T02900218  RH  065%=      5-min Rain = 0
KTH1 160249Z 14007KT 29/22 A2973 RMK A01 T02900218  RH  065%=      5-min Rain = 0
KTH1 160250Z 15010KT 29/22 A2973 RMK A01 T02900218  RH  065%=      5-min Rain = 0
KTH1 160251Z 15010KT 29/22 A2972 RMK A01 T02900218  RH  065%=      5-min Rain = 0
KTH1 160252Z 15009KT 29/22 A2972 RMK A01 T02900218  RH  065%=      5-min Rain = 0
KTH1 160253Z 15009KT 29/22 A2972 RMK A01 T02900218  RH  065%=      5-min Rain = 0
KTH1 160254Z 14010KT 29/22 A2972 RMK A01 T02900217  RH  065%=      5-min Rain = 0
KTH1 160255Z 14009KT 29/22 A2972 RMK A01 T02900217  RH  065%=      5-min Rain = 0
KTH1 160256Z 14008KT 29/22 A2972 RMK A01 T02900217  RH  065%=      5-min Rain = 0
KTH1 160257Z 15011KT 29/22 A2972 RMK A01 T02900217  RH  065%=      5-min Rain = 0
KTH1 160258Z 15009KT 29/22 A2972 RMK A01 T02900216  RH  065%=      5-min Rain = 0
KTH1 160259Z 15009KT 29/22 A2972 RMK A01 T02900216  RH  064%=      5-min Rain = 0
KTH1 160300Z 15011KT 29/22 A2972 RMK A01 T02900216  RH  064%=      5-min Rain = 0
KTH1 160301Z 15010KT 29/22 A2972 RMK A01 T02900215  RH  064%=      5-min Rain = 0
KTH1 160302Z 15010KT 29/22 A2972 RMK A01 T02900215  RH  064%=      5-min Rain = 0
KTH1 160303Z 15009KT 29/22 A2972 RMK A01 T02900215  RH  064%=      5-min Rain = 0
KTH1 160304Z 15010KT 29/22 A2972 RMK A01 T02900215  RH  064%=      5-min Rain = 0
KTH1 160305Z 15010KT 29/21 A2972 RMK A01 T02900214  RH  064%=      5-min Rain = 0
KTH1 160306Z 15009KT 29/21 A2972 RMK A01 T02900214  RH  064%=      5-min Rain = 0
KTH1 160307Z 15010KT 29/22 A2971 RMK A01 T02900215  RH  064%=      5-min Rain = 0
KTH1 160308Z 15010G15KT 29/22 A2971 RMK A01 T02900215  RH  064%=      5-min Rain = 0
KTH1 160309Z 16010KT 29/21 A2971 RMK A01 T02900214  RH  064%=      5-min Rain = 0
KTH1 160310Z 15012G17KT 29/21 A2971 RMK A01 T02900214  RH  064%=      5-min Rain = 0
KTH1 160311Z 15009G14KT 29/21 A2971 RMK A01 T02900214  RH  064%=      5-min Rain = 0
KTH1 160312Z 15010KT 29/21 A2971 RMK A01 T02900213  RH  063%=      5-min Rain = 0
KTH1 160313Z 15010KT 29/21 A2971 RMK A01 T02900213  RH  063%=      5-min Rain = 0
KTH1 160314Z 15010G16KT 29/21 A2971 RMK A01 T02900213  RH  063%=      5-min Rain = 0
KTH1 160315Z 15008KT 29/21 A2971 RMK A01 T02900213  RH  063%=      5-min Rain = 0
KTH1 160316Z 15008KT 29/21 A2972 RMK A01 T02900213  RH  063%=      5-min Rain = 0
KTH1 160317Z 16009KT 29/21 A2972 RMK A01 T02900214  RH  063%=      5-min Rain = 0
KTH1 160318Z 15008KT 29/21 A2972 RMK A01 T02900214  RH  063%=      5-min Rain = 0
KTH1 160319Z 16008KT 29/21 A2972 RMK A01 T02900214  RH  064%=      5-min Rain = 0
KTH1 160320Z 16008KT 29/21 A2973 RMK A01 T02890214  RH  064%=      5-min Rain = 0
KTH1 160321Z 15006KT 29/21 A2973 RMK A01 T02890214  RH  064%=      5-min Rain = 0
KTH1 160322Z 15008KT 29/21 A2973 RMK A01 T02890214  RH  064%=      5-min Rain = 0
KTH1 160323Z 16007KT 29/21 A2973 RMK A01 T02880214  RH  064%=      5-min Rain = 0
KTH1 160324Z 16008KT 29/21 A2973 RMK A01 T02880214  RH  064%=      5-min Rain = 0
KTH1 160325Z 16007KT 29/21 A2973 RMK A01 T02880214  RH  064%=      5-min Rain = 0
KTH1 160326Z 16008KT 29/21 A2973 RMK A01 T02870214  RH  065%=      5-min Rain = 0
KTH1 160327Z 16007G13KT 29/21 A2973 RMK A01 T02870214  RH  065%=      5-min Rain = 0
KTH1 160328Z 16008G13KT 29/21 A2973 RMK A01 T02870214  RH  065%=      5-min Rain = 0
KTH1 160329Z 16009KT 29/21 A2973 RMK A01 T02870214  RH  065%=      5-min Rain = 0
KTH1 160330Z 17007KT 29/21 A2973 RMK A01 T02870214  RH  065%=      5-min Rain = 0
KTH1 160331Z 17007KT 29/21 A2973 RMK A01 T02870214  RH  065%=      5-min Rain = 0
KTH1 160332Z 17006KT 29/21 A2974 RMK A01 T02870214  RH  065%=      5-min Rain = 0
KTH1 160333Z 16007KT 29/21 A2974 RMK A01 T02860214  RH  065%=      5-min Rain = 0
KTH1 160334Z 16006KT 29/21 A2974 RMK A01 T02860214  RH  065%=      5-min Rain = 0
KTH1 160335Z 16008KT 29/21 A2973 RMK A01 T02860214  RH  065%=      5-min Rain = 0
KTH1 160336Z 16008KT 29/21 A2973 RMK A01 T02860214  RH  065%=      5-min Rain = 0
KTH1 160337Z 16008KT 29/21 A2973 RMK A01 T02860214  RH  065%=      5-min Rain = 0
KTH1 160338Z 16009KT 29/21 A2973 RMK A01 T02850214  RH  065%=      5-min Rain = 0
KTH1 160339Z 16008G14KT 29/21 A2973 RMK A01 T02850214  RH  065%=      5-min Rain = 0
KTH1 160340Z 16008KT 29/21 A2974 RMK A01 T02850213  RH  065%=      5-min Rain = 0
KTH1 160341Z 16010G15KT 29/21 A2974 RMK A01 T02850213  RH  065%=      5-min Rain = 0
KTH1 160342Z 17007KT 29/21 A2974 RMK A01 T02860214  RH  065%=      5-min Rain = 0
KTH1 160343Z 18009KT 29/21 A2975 RMK A01 T02860214  RH  065%=      5-min Rain = 0
KTH1 160344Z 17010KT 29/21 A2975 RMK A01 T02860213  RH  065%=      5-min Rain = 0
KTH1 160345Z 17008G13KT 29/21 A2975 RMK A01 T02860213  RH  065%=      5-min Rain = 0
KTH1 160346Z 17008G13KT 29/21 A2974 RMK A01 T02850213  RH  065%=      5-min Rain = 0
KTH1 160347Z 17009G14KT 29/21 A2974 RMK A01 T02860213  RH  065%=      5-min Rain = 0
KTH1 160348Z 16009KT 29/21 A2974 RMK A01 T02860213  RH  065%=      5-min Rain = 0
KTH1 160349Z 16010KT 29/21 A2974 RMK A01 T02860213  RH  065%=      5-min Rain = 0
KTH1 160350Z 16009KT 29/21 A2974 RMK A01 T02850213  RH  065%=      5-min Rain = 0
KTH1 160351Z 17011G16KT 29/21 A2974 RMK A01 T02850214  RH  065%=      5-min Rain = 0
KTH1 160352Z 17009KT 29/21 A2974 RMK A01 T02850213  RH  065%=      5-min Rain = 0
KTH1 160353Z 17008KT 29/21 A2974 RMK A01 T02850213  RH  065%=      5-min Rain = 0
KTH1 160354Z 18009KT 29/21 A2974 RMK A01 T02850213  RH  065%=      5-min Rain = 0
KTH1 160355Z 18007KT 29/21 A2975 RMK A01 T02850212  RH  065%=      5-min Rain = 0
KTH1 160356Z 18008KT 29/21 A2975 RMK A01 T02850213  RH  065%=      5-min Rain = 0
KTH1 160357Z 18007KT 29/21 A2975 RMK A01 T02850212  RH  065%=      5-min Rain = 0
KTH1 160358Z 18007KT 28/21 A2975 RMK A01 T02840212  RH  065%=      5-min Rain = 0
KTH1 160359Z 18005KT 29/21 A2976 RMK A01 T02850212  RH  065%=      5-min Rain = 0
KTH1 160400Z 18007KT 29/21 A2976 RMK A01 T02850212  RH  065%=      5-min Rain = 0
KTH1 160401Z 19005KT 29/21 A2976 RMK A01 T02850213  RH  065%=      5-min Rain = 0
KTH1 160402Z 18007KT 29/21 A2976 RMK A01 T02850213  RH  065%=      5-min Rain = 0
KTH1 160403Z 18006KT 28/21 A2977 RMK A01 T02840212  RH  065%=      5-min Rain = 0
KTH1 160404Z 19006KT 28/21 A2977 RMK A01 T02840212  RH  065%=      5-min Rain = 0
KTH1 160405Z 20007KT 28/21 A2977 RMK A01 T02840212  RH  065%=      5-min Rain = 0
KTH1 160406Z 21006KT 28/21 A2977 RMK A01 T02840212  RH  065%=      5-min Rain = 0
KTH1 160407Z 21008KT 28/21 A2978 RMK A01 T02840211  RH  065%=      5-min Rain = 0
KTH1 160408Z 22007KT 28/21 A2978 RMK A01 T02840211  RH  065%=      5-min Rain = 0
KTH1 160409Z 21007KT 28/21 A2978 RMK A01 T02840211  RH  065%=      5-min Rain = 0
KTH1 160410Z 23006KT 28/21 A2979 RMK A01 T02840211  RH  065%=      5-min Rain = 0
KTH1 160411Z 24008KT 28/21 A298 RMK A01 T02840211  RH  065%=      5-min Rain = 0
KTH1 160412Z 26009KT 29/21 A2981 RMK A01 T02850214  RH  065%=      5-min Rain = 0
KTH1 160413Z 29014G20KT 29/22 A2982 RMK A01 T02850220  RH  068%=      5-min Rain = 0
KTH1 160414Z 32024G33KT 29/22 A2983 RMK A01 T02850215  RH  066%=      5-min Rain = 0
KTH1 160415Z 31025G30KT 28/19 A2983 RMK A01 T02790190  RH  058%=      5-min Rain = 0
KTH1 160416Z 31025KT 27/18 A2984 RMK A01 T02670184  RH  060%=      5-min Rain = 0
KTH1 160417Z 31021G28KT 26/18 A2984 RMK A01 T02590183  RH  063%=      5-min Rain = 0
KTH1 160418Z 31023G28KT 25/18 A2984 RMK A01 T02530183  RH  065%=      5-min Rain = 0
KTH1 160419Z 32019G25KT 25/18 A2984 RMK A01 T02490180  RH  065%=      5-min Rain = 0
KTH1 160420Z 31028G37KT 25/18 A2984 RMK A01 T02470179  RH  066%=      5-min Rain = 0
KTH1 160421Z 30034G42KT 24/18 A2984 RMK A01 T02440180  RH  067%=      5-min Rain = 0
KTH1 160422Z 31032G37KT 24/18 A2985 RMK A01 T02410178  RH  068%=      5-min Rain = 0
KTH1 160423Z 31024G33KT 24/18 A2987 RMK A01 T02390179  RH  069%=      5-min Rain = 0
KTH1 160424Z 30028G35KT 24/18 A2986 RMK A01 T02370177  RH  069%=      5-min Rain = 0
KTH1 160425Z 30026G33KT 23/18 A2986 RMK A01 T02340177  RH  070%=      5-min Rain = 0
KTH1 160426Z 30025G32KT 23/18 A2985 RMK A01 T02320178  RH  071%=      5-min Rain = 0
KTH1 160427Z 29026KT 23/18 A2986 RMK A01 T02300177  RH  072%=      5-min Rain = 0
KTH1 160428Z 30025G39KT 23/18 A2985 RMK A01 T02300177  RH  072%=      5-min Rain = 0
KTH1 160429Z 30034G42KT 23/18 A2984 RMK A01 T02290175  RH  071%=      5-min Rain = 0
KTH1 160430Z 30033G47KT 23/18 A2985 RMK A01 T02280175  RH  072%=      5-min Rain = 0
KTH1 160431Z 31036G49KT 23/17 A2984 RMK A01 T02270173  RH  071%=      5-min Rain = 0
KTH1 160432Z 31038G44KT 23/17 A2984 RMK A01 T02260173  RH  072%=      5-min Rain = 0
KTH1 160433Z 31031G36KT 23/18 A2985 RMK A01 T02250175  RH  073%=      5-min Rain = 0
KTH1 160434Z 30027KT 22/18 A2985 RMK A01 T02240176  RH  074%=      5-min Rain = 0
KTH1 160435Z 31030G37KT 22/17 A2985 RMK A01 T02230173  RH  073%=      5-min Rain = 0
KTH1 160436Z 31030G37KT 22/17 A2985 RMK A01 T02220171  RH  073%=      5-min Rain = 0
KTH1 160437Z 31030KT 22/17 A2986 RMK A01 T02190169  RH  073%=      5-min Rain = 0
KTH1 160438Z 30030G36KT 22/17 A2986 RMK A01 T02180167  RH  073%=      5-min Rain = 0
KTH1 160439Z 30031KT 22/17 A2985 RMK A01 T02170166  RH  073%=      5-min Rain = 0
KTH1 160440Z 30030KT 22/17 A2986 RMK A01 T02150166  RH  074%=      5-min Rain = 0
KTH1 160441Z 31032G37KT 21/17 A2986 RMK A01 T02130166  RH  074%=      5-min Rain = 0
KTH1 160442Z 31026G34KT 21/17 A2986 RMK A01 T02120166  RH  075%=      5-min Rain = 0
KTH1 160443Z 31028G34KT 21/17 A2985 RMK A01 T02110165  RH  075%=      5-min Rain = 0
KTH1 160444Z 32026G33KT 21/16 A2986 RMK A01 T02100164  RH  075%=      5-min Rain = 0
KTH1 160445Z 31024KT 21/16 A2986 RMK A01 T02090164  RH  076%=      5-min Rain = 0
KTH1 160446Z 31024KT 21/17 A2986 RMK A01 T02070167  RH  078%=      5-min Rain = 0
KTH1 160447Z 30026KT 21/17 A2986 RMK A01 T02060166  RH  078%=      5-min Rain = 0
KTH1 160448Z 31028G33KT 20/17 A2986 RMK A01 T02040167  RH  079%=      5-min Rain = 0
KTH1 160449Z 31027G33KT 20/17 A2986 RMK A01 T02020168  RH  081%=      5-min Rain = 0
KTH1 160450Z 31023G30KT 20/17 A2986 RMK A01 T02010170  RH  082%=      5-min Rain = 0
KTH1 160451Z 31019G26KT 20/17 A2985 RMK A01 T02000171  RH  083%=      5-min Rain = 0
KTH1 160452Z 31022KT 20/17 A2985 RMK A01 T02000171  RH  083%=      5-min Rain = 0
KTH1 160453Z 31020KT 20/17 A2985 RMK A01 T02000171  RH  084%=      5-min Rain = 0
KTH1 160454Z 32019KT 20/17 A2985 RMK A01 T02000173  RH  084%=      5-min Rain = 0
KTH1 160455Z 32018G23KT 20/17 A2985 RMK A01 T02010172  RH  083%=      5-min Rain = 0
KTH1 160456Z 33017KT 20/17 A2985 RMK A01 T02010171  RH  083%=      5-min Rain = 0
KTH1 160457Z 32012KT 20/17 A2986 RMK A01 T02010173  RH  084%=      5-min Rain = 0
KTH1 160458Z 32012KT 20/18 A2985 RMK A01 T02000175  RH  085%=      5-min Rain = 0
KTH1 160459Z 32014KT 20/18 A2985 RMK A01 T01980175  RH  087%=      5-min Rain = 0

Page generated in 0.1202 seconds.